Observation data for Sierra Blanca on 12/13/2019      Previous  Date       Current Mesonet Observations  Soil Data  Daily Summary Page  Observations in Plain Language
KSB1 130600Z 30017KT 12/M01 A3018 RMK A01 T01171005  RH  043%=      5-min Rain = 0
KSB1 130601Z 30018G24KT 12/M01 A3018 RMK A01 T01161005  RH  043%=      5-min Rain = 0
KSB1 130602Z 29015G20KT 12/M01 A3018 RMK A01 T01161006  RH  043%=      5-min Rain = 0
KSB1 130603Z 30017KT 12/M01 A3018 RMK A01 T01161005  RH  043%=      5-min Rain = 0
KSB1 130604Z 30016KT 12/M01 A3018 RMK A01 T01161005  RH  043%=      5-min Rain = 0
KSB1 130605Z 29017KT 12/M01 A3018 RMK A01 T01161005  RH  043%=      5-min Rain = 0
KSB1 130606Z 29019KT 12/M01 A3018 RMK A01 T01151005  RH  043%=      5-min Rain = 0
KSB1 130607Z 29017G23KT 12/M00 A3018 RMK A01 T01151004  RH  044%=      5-min Rain = 0
KSB1 130608Z 29019KT 11/M01 A3018 RMK A01 T01141005  RH  044%=      5-min Rain = 0
KSB1 130609Z 29017G22KT 11/M00 A3018 RMK A01 T01141004  RH  044%=      5-min Rain = 0
KSB1 130610Z 29021KT 11/M00 A3018 RMK A01 T01141004  RH  044%=      5-min Rain = 0
KSB1 130611Z 29017KT 12/M00 A3018 RMK A01 T01151004  RH  044%=      5-min Rain = 0
KSB1 130612Z 29018G24KT 12/M00 A3018 RMK A01 T01151004  RH  044%=      5-min Rain = 0
KSB1 130613Z 29016G23KT 12/M01 A3018 RMK A01 T01151005  RH  043%=      5-min Rain = 0
KSB1 130614Z 29015KT 12/M00 A3018 RMK A01 T01161004  RH  044%=      5-min Rain = 0
KSB1 130615Z 29017KT 12/M00 A3018 RMK A01 T01161004  RH  044%=      5-min Rain = 0
KSB1 130616Z 30017KT 12/M00 A3019 RMK A01 T01161004  RH  044%=      5-min Rain = 0
KSB1 130617Z 29018KT 12/M00 A3018 RMK A01 T01161004  RH  043%=      5-min Rain = 0
KSB1 130618Z 29017KT 12/M00 A3018 RMK A01 T01161004  RH  044%=      5-min Rain = 0
KSB1 130619Z 29015KT 12/M00 A3018 RMK A01 T01161004  RH  044%=      5-min Rain = 0
KSB1 130620Z 29018KT 12/M00 A3018 RMK A01 T01161003  RH  044%=      5-min Rain = 0
KSB1 130621Z 29015KT 12/M00 A3018 RMK A01 T01151003  RH  044%=      5-min Rain = 0
KSB1 130622Z 29018G23KT 12/M00 A3018 RMK A01 T01151003  RH  044%=      5-min Rain = 0
KSB1 130623Z 29015KT 12/M00 A3019 RMK A01 T01161003  RH  044%=      5-min Rain = 0
KSB1 130624Z 30015KT 12/M00 A3018 RMK A01 T01161003  RH  044%=      5-min Rain = 0
KSB1 130625Z 29013KT 12/M00 A3019 RMK A01 T01161003  RH  044%=      5-min Rain = 0
KSB1 130626Z 30016KT 12/M00 A3019 RMK A01 T01161003  RH  044%=      5-min Rain = 0
KSB1 130627Z 30015KT 12/M00 A3018 RMK A01 T01161003  RH  044%=      5-min Rain = 0
KSB1 130628Z 30013KT 12/M00 A3019 RMK A01 T01171003  RH  043%=      5-min Rain = 0
KSB1 130629Z 29016KT 12/M00 A3018 RMK A01 T01171003  RH  043%=      5-min Rain = 0
KSB1 130630Z 30015KT 12/M00 A3019 RMK A01 T01171004  RH  043%=      5-min Rain = 0
KSB1 130631Z 29014KT 12/M00 A3018 RMK A01 T01171004  RH  043%=      5-min Rain = 0
KSB1 130632Z 30014KT 12/M00 A3019 RMK A01 T01181004  RH  043%=      5-min Rain = 0
KSB1 130633Z 29017KT 12/M00 A3018 RMK A01 T01181004  RH  043%=      5-min Rain = 0
KSB1 130634Z 29015G20KT 12/M00 A3018 RMK A01 T01181003  RH  043%=      5-min Rain = 0
KSB1 130635Z 30015KT 12/M00 A3018 RMK A01 T01181003  RH  043%=      5-min Rain = 0
KSB1 130636Z 30013KT 12/M00 A3018 RMK A01 T01171003  RH  043%=      5-min Rain = 0
KSB1 130637Z 29015KT 12/M00 A3018 RMK A01 T01171003  RH  043%=      5-min Rain = 0
KSB1 130638Z 30015KT 12/M00 A3018 RMK A01 T01161003  RH  044%=      5-min Rain = 0
KSB1 130639Z 30016KT 12/M00 A3018 RMK A01 T01151003  RH  044%=      5-min Rain = 0
KSB1 130640Z 30013KT 12/M00 A3018 RMK A01 T01151003  RH  044%=      5-min Rain = 0
KSB1 130641Z 29017KT 12/M00 A3018 RMK A01 T01151002  RH  044%=      5-min Rain = 0
KSB1 130642Z 29017KT 12/M00 A3018 RMK A01 T01151003  RH  044%=      5-min Rain = 0
KSB1 130643Z 30014KT 12/M00 A3018 RMK A01 T01151002  RH  044%=      5-min Rain = 0
KSB1 130644Z 29016KT 11/M00 A3018 RMK A01 T01141002  RH  045%=      5-min Rain = 0
KSB1 130645Z 30016KT 11/M00 A3018 RMK A01 T01141002  RH  045%=      5-min Rain = 0
KSB1 130646Z 30016KT 11/M00 A3018 RMK A01 T01141002  RH  045%=      5-min Rain = 0
KSB1 130647Z 30016KT 11/M00 A3018 RMK A01 T01141002  RH  045%=      5-min Rain = 0
KSB1 130648Z 30015KT 11/M00 A3018 RMK A01 T01141002  RH  045%=      5-min Rain = 0
KSB1 130649Z 30015KT 12/M00 A3018 RMK A01 T01151002  RH  044%=      5-min Rain = 0
KSB1 130650Z 29016G21KT 12/M00 A3018 RMK A01 T01161002  RH  044%=      5-min Rain = 0
KSB1 130651Z 30016KT 12/M00 A3018 RMK A01 T01161003  RH  044%=      5-min Rain = 0
KSB1 130652Z 30014KT 12/M00 A3018 RMK A01 T01161002  RH  044%=      5-min Rain = 0
KSB1 130653Z 29015KT 12/M00 A3018 RMK A01 T01161002  RH  044%=      5-min Rain = 0
KSB1 130654Z 30018KT 12/M00 A3018 RMK A01 T01161002  RH  044%=      5-min Rain = 0
KSB1 130655Z 30015KT 12/M00 A3018 RMK A01 T01161002  RH  044%=      5-min Rain = 0
KSB1 130656Z 30016KT 12/M00 A3018 RMK A01 T01171002  RH  044%=      5-min Rain = 0
KSB1 130657Z 30017KT 12/M00 A3018 RMK A01 T01161002  RH  044%=      5-min Rain = 0
KSB1 130658Z 30014KT 12/M00 A3018 RMK A01 T01161001  RH  044%=      5-min Rain = 0
KSB1 130659Z 30016KT 12/M00 A3017 RMK A01 T01151001  RH  045%=      5-min Rain = 0
KSB1 130700Z 30015KT 12/M00 A3017 RMK A01 T01151001  RH  045%=      5-min Rain = 0
KSB1 130701Z 30016KT 12/M00 A3017 RMK A01 T01151001  RH  045%=      5-min Rain = 0
KSB1 130702Z 30017KT 12/M00 A3017 RMK A01 T01151001  RH  045%=      5-min Rain = 0
KSB1 130703Z 29016KT 12/M00 A3017 RMK A01 T01151002  RH  044%=      5-min Rain = 0
KSB1 130704Z 30014KT 12/M00 A3017 RMK A01 T01151001  RH  045%=      5-min Rain = 0
KSB1 130705Z 30017KT 12/00 A3017 RMK A01 T011500-0  RH  045%=      5-min Rain = 0
KSB1 130706Z 29016KT 11/00 A3017 RMK A01 T011400-0  RH  045%=      5-min Rain = 0
KSB1 130707Z 29016KT 11/00 A3017 RMK A01 T011300-0  RH  046%=      5-min Rain = 0
KSB1 130708Z 30017KT 11/00 A3017 RMK A01 T011300-0  RH  046%=      5-min Rain = 0
KSB1 130709Z 30015KT 11/M00 A3017 RMK A01 T01131001  RH  045%=      5-min Rain = 0
KSB1 130710Z 29016KT 11/00 A3017 RMK A01 T011400-0  RH  045%=      5-min Rain = 0
KSB1 130711Z 30014KT 11/00 A3017 RMK A01 T011400-0  RH  045%=      5-min Rain = 0
KSB1 130712Z 29017KT 11/00 A3017 RMK A01 T01130000  RH  046%=      5-min Rain = 0
KSB1 130713Z 29016KT 11/00 A3017 RMK A01 T011300-0  RH  046%=      5-min Rain = 0
KSB1 130714Z 29017KT 11/00 A3017 RMK A01 T011300-0  RH  046%=      5-min Rain = 0
KSB1 130715Z 29018KT 11/00 A3017 RMK A01 T011200-0  RH  046%=      5-min Rain = 0
KSB1 130716Z 29016KT 11/00 A3017 RMK A01 T011200-0  RH  046%=      5-min Rain = 0
KSB1 130717Z 29018KT 11/00 A3017 RMK A01 T011300-0  RH  046%=      5-min Rain = 0
KSB1 130718Z 29017KT 11/00 A3017 RMK A01 T01130000  RH  046%=      5-min Rain = 0
KSB1 130719Z 29018KT 11/00 A3016 RMK A01 T011200-0  RH  046%=      5-min Rain = 0
KSB1 130720Z 29015KT 11/00 A3016 RMK A01 T011200-0  RH  046%=      5-min Rain = 0
KSB1 130721Z 29017KT 11/00 A3016 RMK A01 T011200-0  RH  046%=      5-min Rain = 0
KSB1 130722Z 29018KT 11/00 A3017 RMK A01 T011200-0  RH  046%=      5-min Rain = 0
KSB1 130723Z 29016G21KT 11/00 A3016 RMK A01 T01110000  RH  046%=      5-min Rain = 0
KSB1 130724Z 29018KT 11/00 A3016 RMK A01 T011100-0  RH  046%=      5-min Rain = 0
KSB1 130725Z 29016KT 11/00 A3016 RMK A01 T011200-0  RH  046%=      5-min Rain = 0
KSB1 130726Z 29016KT 11/00 A3016 RMK A01 T011200-0  RH  046%=      5-min Rain = 0
KSB1 130727Z 29018KT 11/00 A3016 RMK A01 T011200-0  RH  046%=      5-min Rain = 0
KSB1 130728Z 29017KT 11/00 A3016 RMK A01 T011300-0  RH  046%=      5-min Rain = 0
KSB1 130729Z 29018KT 11/00 A3016 RMK A01 T01120000  RH  046%=      5-min Rain = 0
KSB1 130730Z 29017KT 11/00 A3016 RMK A01 T01110000  RH  046%=      5-min Rain = 0
KSB1 130731Z 29018KT 11/00 A3016 RMK A01 T01110001  RH  047%=      5-min Rain = 0
KSB1 130732Z 29017KT 11/00 A3016 RMK A01 T01100001  RH  047%=      5-min Rain = 0
KSB1 130733Z 29018KT 11/00 A3016 RMK A01 T01100001  RH  047%=      5-min Rain = 0
KSB1 130734Z 29017KT 11/00 A3016 RMK A01 T01100001  RH  047%=      5-min Rain = 0
KSB1 130735Z 29017KT 11/00 A3017 RMK A01 T01090002  RH  048%=      5-min Rain = 0
KSB1 130736Z 28018KT 11/00 A3016 RMK A01 T01080001  RH  048%=      5-min Rain = 0
KSB1 130737Z 29017KT 11/00 A3016 RMK A01 T01070002  RH  048%=      5-min Rain = 0
KSB1 130738Z 29017KT 11/00 A3016 RMK A01 T01050002  RH  049%=      5-min Rain = 0
KSB1 130739Z 29017KT 10/00 A3016 RMK A01 T01040003  RH  049%=      5-min Rain = 0
KSB1 130740Z 29016KT 10/00 A3016 RMK A01 T01040003  RH  049%=      5-min Rain = 0
KSB1 130741Z 29015KT 11/00 A3016 RMK A01 T01050003  RH  049%=      5-min Rain = 0
KSB1 130742Z 29017KT 11/00 A3016 RMK A01 T01060003  RH  049%=      5-min Rain = 0
KSB1 130743Z 29017KT 11/00 A3016 RMK A01 T01090003  RH  048%=      5-min Rain = 0
KSB1 130744Z 29017KT 11/00 A3016 RMK A01 T01100003  RH  048%=      5-min Rain = 0
KSB1 130745Z 29016KT 11/00 A3016 RMK A01 T01110003  RH  047%=      5-min Rain = 0
KSB1 130746Z 29016KT 11/00 A3016 RMK A01 T01120003  RH  047%=      5-min Rain = 0
KSB1 130747Z 29015KT 11/00 A3016 RMK A01 T01130004  RH  047%=      5-min Rain = 0
KSB1 130748Z 29016KT 11/00 A3016 RMK A01 T01120003  RH  047%=      5-min Rain = 0
KSB1 130749Z 29016KT 11/00 A3016 RMK A01 T01120003  RH  047%=      5-min Rain = 0
KSB1 130750Z 29015KT 11/00 A3016 RMK A01 T01130003  RH  047%=      5-min Rain = 0
KSB1 130751Z 29016KT 11/00 A3016 RMK A01 T01130004  RH  047%=      5-min Rain = 0
KSB1 130752Z 29016KT 11/00 A3016 RMK A01 T01120004  RH  047%=      5-min Rain = 0
KSB1 130753Z 29016KT 11/00 A3016 RMK A01 T01120004  RH  047%=      5-min Rain = 0
KSB1 130754Z 29015KT 11/00 A3016 RMK A01 T01130003  RH  047%=      5-min Rain = 0
KSB1 130755Z 30013KT 11/00 A3016 RMK A01 T01140004  RH  047%=      5-min Rain = 0
KSB1 130756Z 30016KT 11/00 A3016 RMK A01 T01140004  RH  047%=      5-min Rain = 0
KSB1 130757Z 30016KT 11/00 A3016 RMK A01 T01140004  RH  046%=      5-min Rain = 0
KSB1 130758Z 30016KT 12/00 A3016 RMK A01 T01160003  RH  046%=      5-min Rain = 0
KSB1 130759Z 30016KT 12/00 A3016 RMK A01 T01180003  RH  045%=      5-min Rain = 0
KSB1 130800Z 30015KT 12/00 A3016 RMK A01 T01180003  RH  045%=      5-min Rain = 0
KSB1 130801Z 30014KT 12/00 A3017 RMK A01 T01190003  RH  045%=      5-min Rain = 0
KSB1 130802Z 30013KT 12/00 A3017 RMK A01 T01180004  RH  045%=      5-min Rain = 0
KSB1 130803Z 30014KT 12/00 A3016 RMK A01 T01160004  RH  046%=      5-min Rain = 0
KSB1 130804Z 30014KT 12/00 A3016 RMK A01 T01160004  RH  046%=      5-min Rain = 0
KSB1 130805Z 30015KT 12/00 A3016 RMK A01 T01160004  RH  046%=      5-min Rain = 0
KSB1 130806Z 30014KT 12/00 A3016 RMK A01 T01160004  RH  046%=      5-min Rain = 0
KSB1 130807Z 30013KT 12/00 A3016 RMK A01 T01150004  RH  046%=      5-min Rain = 0
KSB1 130808Z 31014KT 12/01 A3016 RMK A01 T01160005  RH  046%=      5-min Rain = 0
KSB1 130809Z 30013KT 12/00 A3016 RMK A01 T01150004  RH  046%=      5-min Rain = 0
KSB1 130810Z 30013KT 12/00 A3017 RMK A01 T01160004  RH  046%=      5-min Rain = 0
KSB1 130811Z 30016KT 12/01 A3017 RMK A01 T01150005  RH  047%=      5-min Rain = 0
KSB1 130812Z 31015KT 12/00 A3017 RMK A01 T01150004  RH  047%=      5-min Rain = 0
KSB1 130813Z 30013KT 12/00 A3017 RMK A01 T01150004  RH  046%=      5-min Rain = 0
KSB1 130814Z 30014KT 12/01 A3017 RMK A01 T01150005  RH  047%=      5-min Rain = 0
KSB1 130815Z 30014KT 11/01 A3017 RMK A01 T01140005  RH  047%=      5-min Rain = 0
KSB1 130816Z 31013KT 11/00 A3017 RMK A01 T01130004  RH  047%=      5-min Rain = 0
KSB1 130817Z 31013KT 11/01 A3017 RMK A01 T01130005  RH  047%=      5-min Rain = 0
KSB1 130818Z 31011KT 11/01 A3017 RMK A01 T01120005  RH  048%=      5-min Rain = 0
KSB1 130819Z 31012KT 11/01 A3017 RMK A01 T01110005  RH  048%=      5-min Rain = 0
KSB1 130820Z 31013KT 11/01 A3017 RMK A01 T01100006  RH  048%=      5-min Rain = 0
KSB1 130821Z 30013KT 11/01 A3017 RMK A01 T01100005  RH  048%=      5-min Rain = 0
KSB1 130822Z 30012KT 11/01 A3017 RMK A01 T01090005  RH  048%=      5-min Rain = 0
KSB1 130823Z 31013KT 11/01 A3017 RMK A01 T01090005  RH  049%=      5-min Rain = 0
KSB1 130824Z 30012KT 11/01 A3017 RMK A01 T01100005  RH  049%=      5-min Rain = 0
KSB1 130825Z 31012KT 11/01 A3017 RMK A01 T01100006  RH  049%=      5-min Rain = 0
KSB1 130826Z 31012KT 11/01 A3017 RMK A01 T01090006  RH  049%=      5-min Rain = 0
KSB1 130827Z 30013KT 11/01 A3017 RMK A01 T01080006  RH  049%=      5-min Rain = 0
KSB1 130828Z 31012KT 11/01 A3017 RMK A01 T01070007  RH  050%=      5-min Rain = 0
KSB1 130829Z 30013KT 11/01 A3017 RMK A01 T01060006  RH  050%=      5-min Rain = 0
KSB1 130830Z 30013KT 11/01 A3017 RMK A01 T01070006  RH  050%=      5-min Rain = 0
KSB1 130831Z 30014KT 11/01 A3016 RMK A01 T01070007  RH  050%=      5-min Rain = 0
KSB1 130832Z 30013KT 11/01 A3016 RMK A01 T01070007  RH  050%=      5-min Rain = 0
KSB1 130833Z 30012KT 11/01 A3016 RMK A01 T01070007  RH  050%=      5-min Rain = 0
KSB1 130834Z 30012KT 11/01 A3016 RMK A01 T01070007  RH  050%=      5-min Rain = 0
KSB1 130835Z 30013KT 11/01 A3016 RMK A01 T01070007  RH  050%=      5-min Rain = 0
KSB1 130836Z 30014KT 11/01 A3016 RMK A01 T01070008  RH  050%=      5-min Rain = 0
KSB1 130837Z 30013KT 11/01 A3016 RMK A01 T01070007  RH  050%=      5-min Rain = 0
KSB1 130838Z 30013KT 11/01 A3016 RMK A01 T01080007  RH  050%=      5-min Rain = 0
KSB1 130839Z 30013KT 11/01 A3016 RMK A01 T01080007  RH  050%=      5-min Rain = 0
KSB1 130840Z 30011KT 11/01 A3017 RMK A01 T01080007  RH  050%=      5-min Rain = 0
KSB1 130841Z 30012KT 11/01 A3017 RMK A01 T01060008  RH  051%=      5-min Rain = 0
KSB1 130842Z 30013KT 10/01 A3016 RMK A01 T01040008  RH  051%=      5-min Rain = 0
KSB1 130843Z 30012KT 10/01 A3016 RMK A01 T01040008  RH  051%=      5-min Rain = 0
KSB1 130844Z 30013KT 11/01 A3016 RMK A01 T01050007  RH  051%=      5-min Rain = 0
KSB1 130845Z 30013KT 11/01 A3016 RMK A01 T01070007  RH  050%=      5-min Rain = 0
KSB1 130846Z 30012KT 11/01 A3016 RMK A01 T01070007  RH  050%=      5-min Rain = 0
KSB1 130847Z 30013KT 11/01 A3016 RMK A01 T01070007  RH  050%=      5-min Rain = 0
KSB1 130848Z 30013KT 11/01 A3016 RMK A01 T01080007  RH  049%=      5-min Rain = 0
KSB1 130849Z 30013KT 11/01 A3016 RMK A01 T01090007  RH  049%=      5-min Rain = 0
KSB1 130850Z 30013KT 11/01 A3016 RMK A01 T01090007  RH  049%=      5-min Rain = 0
KSB1 130851Z 30012KT 11/01 A3016 RMK A01 T01090007  RH  049%=      5-min Rain = 0
KSB1 130852Z 29013KT 11/01 A3016 RMK A01 T01090008  RH  050%=      5-min Rain = 0
KSB1 130853Z 30013KT 11/01 A3016 RMK A01 T01080008  RH  050%=      5-min Rain = 0
KSB1 130854Z 29012KT 11/01 A3016 RMK A01 T01080007  RH  049%=      5-min Rain = 0
KSB1 130855Z 30011KT 11/01 A3016 RMK A01 T01090007  RH  049%=      5-min Rain = 0
KSB1 130856Z 30012KT 11/01 A3016 RMK A01 T01090007  RH  050%=      5-min Rain = 0
KSB1 130857Z 30012KT 11/01 A3016 RMK A01 T01080007  RH  050%=      5-min Rain = 0
KSB1 130858Z 30012KT 11/01 A3016 RMK A01 T01090007  RH  050%=      5-min Rain = 0
KSB1 130859Z 30012KT 11/01 A3017 RMK A01 T01080007  RH  050%=      5-min Rain = 0
KSB1 130900Z 30011KT 11/01 A3016 RMK A01 T01080008  RH  050%=      5-min Rain = 0
KSB1 130901Z 29011KT 11/01 A3016 RMK A01 T01080008  RH  050%=      5-min Rain = 0
KSB1 130902Z 30011KT 11/01 A3016 RMK A01 T01070008  RH  050%=      5-min Rain = 0
KSB1 130903Z 29011KT 11/01 A3016 RMK A01 T01070008  RH  050%=      5-min Rain = 0
KSB1 130904Z 29011KT 11/01 A3016 RMK A01 T01070007  RH  050%=      5-min Rain = 0
KSB1 130905Z 29010KT 11/01 A3017 RMK A01 T01070008  RH  050%=      5-min Rain = 0
KSB1 130906Z 29011KT 11/01 A3016 RMK A01 T01070007  RH  050%=      5-min Rain = 0
KSB1 130907Z 30011KT 11/01 A3016 RMK A01 T01080007  RH  050%=      5-min Rain = 0
KSB1 130908Z 30012KT 11/01 A3016 RMK A01 T01080008  RH  050%=      5-min Rain = 0
KSB1 130909Z 30011KT 11/01 A3016 RMK A01 T01070008  RH  050%=      5-min Rain = 0
KSB1 130910Z 30011KT 11/01 A3016 RMK A01 T01070008  RH  051%=      5-min Rain = 0
KSB1 130911Z 30011KT 11/01 A3016 RMK A01 T01060008  RH  051%=      5-min Rain = 0
KSB1 130912Z 29011KT 11/01 A3016 RMK A01 T01060008  RH  051%=      5-min Rain = 0
KSB1 130913Z 29011KT 11/01 A3016 RMK A01 T01070008  RH  051%=      5-min Rain = 0
KSB1 130914Z 29010KT 11/01 A3016 RMK A01 T01070008  RH  050%=      5-min Rain = 0
KSB1 130915Z 29010KT 11/01 A3016 RMK A01 T01070009  RH  051%=      5-min Rain = 0
KSB1 130916Z 29011KT 11/01 A3016 RMK A01 T01070008  RH  051%=      5-min Rain = 0
KSB1 130917Z 29013KT 11/01 A3016 RMK A01 T01070008  RH  050%=      5-min Rain = 0
KSB1 130918Z 29013KT 11/01 A3016 RMK A01 T01080008  RH  050%=      5-min Rain = 0
KSB1 130919Z 29013KT 11/01 A3016 RMK A01 T01090008  RH  050%=      5-min Rain = 0
KSB1 130920Z 29013KT 11/01 A3016 RMK A01 T01090008  RH  050%=      5-min Rain = 0
KSB1 130921Z 30014KT 11/01 A3016 RMK A01 T01090009  RH  050%=      5-min Rain = 0
KSB1 130922Z 30013KT 11/01 A3016 RMK A01 T01090008  RH  050%=      5-min Rain = 0
KSB1 130923Z 29014KT 11/01 A3016 RMK A01 T01100009  RH  050%=      5-min Rain = 0
KSB1 130924Z 29014KT 11/01 A3016 RMK A01 T01110009  RH  049%=      5-min Rain = 0
KSB1 130925Z 29013KT 11/01 A3016 RMK A01 T01110009  RH  049%=      5-min Rain = 0
KSB1 130926Z 29014KT 11/01 A3016 RMK A01 T01100010  RH  050%=      5-min Rain = 0
KSB1 130927Z 29015KT 11/01 A3016 RMK A01 T01090010  RH  050%=      5-min Rain = 0
KSB1 130928Z 29014KT 11/01 A3016 RMK A01 T01090010  RH  050%=      5-min Rain = 0
KSB1 130929Z 30015KT 11/01 A3016 RMK A01 T01080010  RH  051%=      5-min Rain = 0
KSB1 130930Z 29015KT 11/01 A3016 RMK A01 T01080010  RH  051%=      5-min Rain = 0
KSB1 130931Z 30016KT 11/01 A3016 RMK A01 T01080010  RH  051%=      5-min Rain = 0
KSB1 130932Z 29016KT 11/01 A3016 RMK A01 T01080009  RH  051%=      5-min Rain = 0
KSB1 130933Z 29014KT 11/01 A3016 RMK A01 T01090010  RH  050%=      5-min Rain = 0
KSB1 130934Z 30014KT 11/01 A3016 RMK A01 T01090010  RH  050%=      5-min Rain = 0
KSB1 130935Z 29015KT 11/01 A3016 RMK A01 T01080010  RH  051%=      5-min Rain = 0
KSB1 130936Z 30015KT 11/01 A3015 RMK A01 T01080010  RH  051%=      5-min Rain = 0
KSB1 130937Z 29016KT 11/01 A3015 RMK A01 T01070010  RH  051%=      5-min Rain = 0
KSB1 130938Z 29015KT 11/01 A3015 RMK A01 T01070010  RH  051%=      5-min Rain = 0
KSB1 130939Z 30014KT 11/01 A3015 RMK A01 T01070011  RH  051%=      5-min Rain = 0
KSB1 130940Z 29015KT 11/01 A3015 RMK A01 T01070010  RH  051%=      5-min Rain = 0
KSB1 130941Z 29016KT 11/01 A3016 RMK A01 T01080010  RH  051%=      5-min Rain = 0
KSB1 130942Z 29014KT 11/01 A3015 RMK A01 T01100010  RH  050%=      5-min Rain = 0
KSB1 130943Z 29016KT 11/01 A3015 RMK A01 T01100010  RH  050%=      5-min Rain = 0
KSB1 130944Z 29016KT 11/01 A3015 RMK A01 T01100010  RH  050%=      5-min Rain = 0
KSB1 130945Z 29015KT 11/01 A3015 RMK A01 T01090010  RH  050%=      5-min Rain = 0
KSB1 130946Z 29013KT 11/01 A3015 RMK A01 T01090011  RH  051%=      5-min Rain = 0
KSB1 130947Z 29014KT 11/01 A3015 RMK A01 T01060011  RH  052%=      5-min Rain = 0
KSB1 130948Z 29015KT 10/01 A3015 RMK A01 T01040011  RH  052%=      5-min Rain = 0
KSB1 130949Z 28015KT 10/01 A3015 RMK A01 T01040011  RH  052%=      5-min Rain = 0
KSB1 130950Z 29014KT 11/01 A3016 RMK A01 T01050011  RH  052%=      5-min Rain = 0
KSB1 130951Z 29012KT 11/01 A3016 RMK A01 T01050011  RH  052%=      5-min Rain = 0
KSB1 130952Z 30013KT 11/01 A3016 RMK A01 T01060011  RH  052%=      5-min Rain = 0
KSB1 130953Z 29016KT 11/01 A3016 RMK A01 T01080011  RH  051%=      5-min Rain = 0
KSB1 130954Z 29015KT 11/01 A3016 RMK A01 T01100011  RH  051%=      5-min Rain = 0
KSB1 130955Z 30014KT 11/01 A3016 RMK A01 T01100011  RH  050%=      5-min Rain = 0
KSB1 130956Z 29015KT 11/01 A3016 RMK A01 T01100011  RH  050%=      5-min Rain = 0
KSB1 130957Z 30014KT 11/01 A3016 RMK A01 T01100011  RH  050%=      5-min Rain = 0
KSB1 130958Z 29015KT 11/01 A3016 RMK A01 T01100011  RH  050%=      5-min Rain = 0
KSB1 130959Z 30014KT 11/01 A3016 RMK A01 T01100011  RH  051%=      5-min Rain = 0
KSB1 131000Z 29013KT 11/01 A3016 RMK A01 T01090011  RH  051%=      5-min Rain = 0
KSB1 131001Z 29014KT 11/01 A3016 RMK A01 T01090011  RH  051%=      5-min Rain = 0
KSB1 131002Z 29012KT 11/01 A3016 RMK A01 T01080012  RH  051%=      5-min Rain = 0
KSB1 131003Z 29011KT 11/01 A3016 RMK A01 T01080012  RH  051%=      5-min Rain = 0
KSB1 131004Z 29013KT 11/01 A3016 RMK A01 T01070012  RH  052%=      5-min Rain = 0
KSB1 131005Z 29014KT 11/01 A3016 RMK A01 T01070011  RH  052%=      5-min Rain = 0
KSB1 131006Z 29013KT 11/01 A3016 RMK A01 T01070011  RH  051%=      5-min Rain = 0
KSB1 131007Z 29013KT 11/01 A3016 RMK A01 T01080012  RH  051%=      5-min Rain = 0
KSB1 131008Z 30013KT 11/01 A3016 RMK A01 T01080011  RH  051%=      5-min Rain = 0
KSB1 131009Z 30015KT 11/01 A3016 RMK A01 T01080011  RH  051%=      5-min Rain = 0
KSB1 131010Z 29015KT 11/01 A3016 RMK A01 T01100011  RH  051%=      5-min Rain = 0
KSB1 131011Z 30014KT 11/01 A3016 RMK A01 T01110011  RH  050%=      5-min Rain = 0
KSB1 131012Z 30015KT 11/01 A3016 RMK A01 T01100012  RH  051%=      5-min Rain = 0
KSB1 131013Z 29014KT 11/01 A3016 RMK A01 T01100012  RH  051%=      5-min Rain = 0
KSB1 131014Z 30014KT 11/01 A3016 RMK A01 T01100012  RH  051%=      5-min Rain = 0
KSB1 131015Z 29014KT 11/01 A3016 RMK A01 T01100012  RH  051%=      5-min Rain = 0
KSB1 131016Z 29013KT 11/01 A3016 RMK A01 T01090012  RH  051%=      5-min Rain = 0
KSB1 131017Z 29012KT 11/01 A3016 RMK A01 T01080012  RH  052%=      5-min Rain = 0
KSB1 131018Z 30014KT 11/01 A3016 RMK A01 T01070012  RH  052%=      5-min Rain = 0
KSB1 131019Z 29013KT 11/01 A3016 RMK A01 T01070012  RH  052%=      5-min Rain = 0
KSB1 131020Z 30013KT 11/01 A3016 RMK A01 T01070012  RH  052%=      5-min Rain = 0
KSB1 131021Z 29014KT 11/01 A3016 RMK A01 T01070013  RH  052%=      5-min Rain = 0
KSB1 131022Z 29013KT 11/01 A3016 RMK A01 T01070013  RH  052%=      5-min Rain = 0
KSB1 131023Z 30014KT 11/01 A3016 RMK A01 T01060012  RH  052%=      5-min Rain = 0
KSB1 131024Z 30013KT 11/01 A3015 RMK A01 T01070013  RH  052%=      5-min Rain = 0
KSB1 131025Z 29014KT 11/01 A3015 RMK A01 T01070012  RH  052%=      5-min Rain = 0
KSB1 131026Z 30014KT 11/01 A3015 RMK A01 T01070012  RH  052%=      5-min Rain = 0
KSB1 131027Z 30013KT 11/01 A3015 RMK A01 T01070012  RH  052%=      5-min Rain = 0
KSB1 131028Z 29013KT 11/01 A3015 RMK A01 T01070013  RH  052%=      5-min Rain = 0
KSB1 131029Z 29013KT 11/01 A3015 RMK A01 T01070013  RH  052%=      5-min Rain = 0
KSB1 131030Z 29012KT 11/01 A3015 RMK A01 T01060013  RH  052%=      5-min Rain = 0
KSB1 131031Z 30013KT 11/01 A3015 RMK A01 T01070013  RH  052%=      5-min Rain = 0
KSB1 131032Z 30013KT 11/01 A3015 RMK A01 T01060013  RH  052%=      5-min Rain = 0
KSB1 131033Z 30013KT 11/01 A3015 RMK A01 T01050014  RH  053%=      5-min Rain = 0
KSB1 131034Z 29010KT 10/01 A3015 RMK A01 T01040014  RH  053%=      5-min Rain = 0
KSB1 131035Z 29011KT 10/01 A3015 RMK A01 T01030013  RH  054%=      5-min Rain = 0
KSB1 131036Z 29012KT 10/01 A3015 RMK A01 T01030013  RH  054%=      5-min Rain = 0
KSB1 131037Z 29013KT 10/01 A3015 RMK A01 T01040013  RH  053%=      5-min Rain = 0
KSB1 131038Z 29011KT 10/01 A3015 RMK A01 T01040013  RH  053%=      5-min Rain = 0
KSB1 131039Z 29011KT 11/01 A3015 RMK A01 T01050014  RH  053%=      5-min Rain = 0
KSB1 131040Z 29011KT 10/01 A3015 RMK A01 T01020014  RH  054%=      5-min Rain = 0
KSB1 131041Z 29011KT 10/01 A3015 RMK A01 T01010014  RH  055%=      5-min Rain = 0
KSB1 131042Z 29010KT 10/01 A3015 RMK A01 T00990014  RH  055%=      5-min Rain = 0
KSB1 131043Z 28011KT 10/01 A3015 RMK A01 T00970014  RH  056%=      5-min Rain = 0
KSB1 131044Z 29011KT 10/01 A3015 RMK A01 T00950014  RH  057%=      5-min Rain = 0
KSB1 131045Z 28012KT 10/02 A3016 RMK A01 T00950015  RH  057%=      5-min Rain = 0
KSB1 131046Z 28011KT 09/02 A3016 RMK A01 T00940015  RH  058%=      5-min Rain = 0
KSB1 131047Z 28012KT 09/02 A3016 RMK A01 T00930015  RH  058%=      5-min Rain = 0
KSB1 131048Z 29011KT 09/02 A3016 RMK A01 T00910015  RH  059%=      5-min Rain = 0
KSB1 131049Z 29011KT 09/02 A3016 RMK A01 T00890015  RH  060%=      5-min Rain = 0
KSB1 131050Z 29011KT 09/02 A3016 RMK A01 T00880015  RH  060%=      5-min Rain = 0
KSB1 131051Z 29011KT 09/02 A3016 RMK A01 T00880015  RH  060%=      5-min Rain = 0
KSB1 131052Z 29012KT 09/02 A3016 RMK A01 T00920016  RH  059%=      5-min Rain = 0
KSB1 131053Z 29012KT 10/02 A3016 RMK A01 T00950016  RH  058%=      5-min Rain = 0
KSB1 131054Z 28012KT 10/02 A3016 RMK A01 T00970016  RH  057%=      5-min Rain = 0
KSB1 131055Z 29011KT 10/02 A3015 RMK A01 T00970015  RH  057%=      5-min Rain = 0
KSB1 131056Z 28011KT 10/02 A3015 RMK A01 T00960015  RH  057%=      5-min Rain = 0
KSB1 131057Z 28011KT 10/02 A3015 RMK A01 T00950015  RH  057%=      5-min Rain = 0
KSB1 131058Z 28011KT 09/02 A3015 RMK A01 T00930015  RH  058%=      5-min Rain = 0
KSB1 131059Z 28010KT 09/02 A3015 RMK A01 T00910015  RH  059%=      5-min Rain = 0
KSB1 131100Z 27009KT 09/02 A3015 RMK A01 T00890015  RH  060%=      5-min Rain = 0
KSB1 131101Z 27010KT 09/02 A3015 RMK A01 T00880015  RH  060%=      5-min Rain = 0
KSB1 131102Z 27011KT 09/02 A3015 RMK A01 T00880015  RH  060%=      5-min Rain = 0
KSB1 131103Z 28010KT 09/02 A3015 RMK A01 T00890016  RH  060%=      5-min Rain = 0
KSB1 131104Z 28011KT 09/02 A3015 RMK A01 T00890016  RH  060%=      5-min Rain = 0
KSB1 131105Z 28010KT 09/02 A3015 RMK A01 T00900016  RH  060%=      5-min Rain = 0
KSB1 131106Z 29010KT 09/02 A3015 RMK A01 T00920016  RH  059%=      5-min Rain = 0
KSB1 131107Z 29013KT 09/02 A3015 RMK A01 T00940016  RH  058%=      5-min Rain = 0
KSB1 131108Z 29012KT 10/02 A3015 RMK A01 T00990016  RH  056%=      5-min Rain = 0
KSB1 131109Z 29010KT 10/02 A3015 RMK A01 T01020015  RH  055%=      5-min Rain = 0
KSB1 131110Z 29011KT 10/02 A3015 RMK A01 T01030015  RH  054%=      5-min Rain = 0
KSB1 131111Z 29011KT 10/02 A3015 RMK A01 T01040015  RH  054%=      5-min Rain = 0
KSB1 131112Z 30012KT 10/01 A3015 RMK A01 T01040014  RH  054%=      5-min Rain = 0
KSB1 131113Z 29010KT 11/02 A3015 RMK A01 T01060015  RH  053%=      5-min Rain = 0
KSB1 131114Z 29010KT 11/02 A3015 RMK A01 T01050015  RH  054%=      5-min Rain = 0
KSB1 131115Z 29012KT 10/01 A3015 RMK A01 T01040014  RH  054%=      5-min Rain = 0
KSB1 131116Z 29012KT 10/01 A3015 RMK A01 T01040014  RH  054%=      5-min Rain = 0
KSB1 131117Z 29011KT 11/01 A3015 RMK A01 T01050014  RH  053%=      5-min Rain = 0
KSB1 131118Z 30013KT 11/01 A3015 RMK A01 T01050014  RH  053%=      5-min Rain = 0
KSB1 131119Z 30013KT 11/01 A3015 RMK A01 T01050014  RH  053%=      5-min Rain = 0
KSB1 131120Z 29013KT 11/01 A3015 RMK A01 T01060014  RH  053%=      5-min Rain = 0
KSB1 131121Z 30010KT 11/01 A3015 RMK A01 T01060014  RH  053%=      5-min Rain = 0
KSB1 131122Z 30012KT 11/01 A3015 RMK A01 T01050014  RH  053%=      5-min Rain = 0
KSB1 131123Z 30011KT 11/01 A3015 RMK A01 T01050014  RH  053%=      5-min Rain = 0
KSB1 131124Z 30010KT 11/02 A3015 RMK A01 T01050015  RH  053%=      5-min Rain = 0
KSB1 131125Z 30010KT 10/02 A3015 RMK A01 T01040015  RH  054%=      5-min Rain = 0
KSB1 131126Z 30012KT 10/01 A3015 RMK A01 T01040014  RH  054%=      5-min Rain = 0
KSB1 131127Z 31011KT 10/01 A3015 RMK A01 T01040014  RH  054%=      5-min Rain = 0
KSB1 131128Z 31009KT 10/02 A3015 RMK A01 T01040015  RH  054%=      5-min Rain = 0
KSB1 131129Z 31008KT 10/02 A3015 RMK A01 T01030015  RH  054%=      5-min Rain = 0
KSB1 131130Z 32010KT 10/02 A3015 RMK A01 T01020015  RH  055%=      5-min Rain = 0
KSB1 131131Z 32010KT 10/02 A3015 RMK A01 T01000016  RH  056%=      5-min Rain = 0
KSB1 131132Z 33012KT 10/02 A3015 RMK A01 T00960016  RH  057%=      5-min Rain = 0
KSB1 131133Z 33011KT 09/02 A3015 RMK A01 T00920017  RH  059%=      5-min Rain = 0
KSB1 131134Z 32013KT 09/02 A3015 RMK A01 T00870017  RH  061%=      5-min Rain = 0
KSB1 131135Z 32013KT 08/02 A3015 RMK A01 T00810016  RH  064%=      5-min Rain = 0
KSB1 131136Z 31014KT 08/02 A3015 RMK A01 T00770017  RH  066%=      5-min Rain = 0
KSB1 131137Z 31014KT 08/02 A3015 RMK A01 T00760017  RH  066%=      5-min Rain = 0
KSB1 131138Z 31014KT 08/02 A3015 RMK A01 T00750018  RH  067%=      5-min Rain = 0
KSB1 131139Z 31015KT 08/02 A3015 RMK A01 T00750018  RH  067%=      5-min Rain = 0
KSB1 131140Z 31014KT 08/02 A3015 RMK A01 T00770018  RH  066%=      5-min Rain = 0
KSB1 131141Z 31014KT 08/02 A3015 RMK A01 T00780018  RH  066%=      5-min Rain = 0
KSB1 131142Z 30014KT 08/02 A3015 RMK A01 T00800018  RH  065%=      5-min Rain = 0
KSB1 131143Z 30016KT 08/02 A3015 RMK A01 T00830018  RH  063%=      5-min Rain = 0
KSB1 131144Z 31016KT 09/02 A3015 RMK A01 T00870018  RH  062%=      5-min Rain = 0
KSB1 131145Z 30015KT 09/02 A3015 RMK A01 T00900018  RH  060%=      5-min Rain = 0
KSB1 131146Z 30014KT 09/02 A3015 RMK A01 T00910017  RH  060%=      5-min Rain = 0
KSB1 131147Z 30013KT 09/02 A3015 RMK A01 T00930017  RH  059%=      5-min Rain = 0
KSB1 131148Z 31014KT 10/02 A3015 RMK A01 T00950017  RH  058%=      5-min Rain = 0
KSB1 131149Z 31014KT 10/02 A3015 RMK A01 T00970016  RH  057%=      5-min Rain = 0
KSB1 131150Z 31012KT 10/02 A3015 RMK A01 T00990016  RH  056%=      5-min Rain = 0
KSB1 131151Z 31011KT 10/02 A3015 RMK A01 T01000016  RH  056%=      5-min Rain = 0
KSB1 131152Z 31010KT 10/02 A3015 RMK A01 T00990017  RH  057%=      5-min Rain = 0
KSB1 131153Z 31011KT 10/02 A3015 RMK A01 T00960017  RH  058%=      5-min Rain = 0
KSB1 131154Z 31012KT 09/02 A3015 RMK A01 T00940017  RH  059%=      5-min Rain = 0
KSB1 131155Z 31012KT 09/02 A3015 RMK A01 T00930018  RH  059%=      5-min Rain = 0
KSB1 131156Z 31012KT 09/02 A3016 RMK A01 T00920018  RH  060%=      5-min Rain = 0
KSB1 131157Z 31013KT 09/02 A3016 RMK A01 T00910018  RH  060%=      5-min Rain = 0
KSB1 131158Z 30013KT 09/02 A3016 RMK A01 T00900018  RH  060%=      5-min Rain = 0
KSB1 131159Z 30014KT 09/02 A3016 RMK A01 T00910017  RH  060%=      5-min Rain = 0
KSB1 131200Z 30014KT 09/02 A3016 RMK A01 T00920017  RH  060%=      5-min Rain = 0
KSB1 131201Z 30014KT 09/02 A3016 RMK A01 T00940017  RH  059%=      5-min Rain = 0
KSB1 131202Z 30014KT 10/02 A3016 RMK A01 T00950017  RH  058%=      5-min Rain = 0
KSB1 131203Z 30014KT 10/02 A3015 RMK A01 T00970016  RH  057%=      5-min Rain = 0
KSB1 131204Z 30013KT 10/02 A3015 RMK A01 T00990016  RH  056%=      5-min Rain = 0
KSB1 131205Z 30012KT 10/02 A3016 RMK A01 T01000015  RH  056%=      5-min Rain = 0
KSB1 131206Z 30014KT 10/02 A3016 RMK A01 T01010015  RH  055%=      5-min Rain = 0
KSB1 131207Z 30014KT 10/01 A3016 RMK A01 T01020014  RH  054%=      5-min Rain = 0
KSB1 131208Z 30013KT 10/01 A3016 RMK A01 T01040014  RH  054%=      5-min Rain = 0
KSB1 131209Z 31014KT 10/02 A3016 RMK A01 T01040015  RH  054%=      5-min Rain = 0
KSB1 131210Z 30012KT 10/02 A3016 RMK A01 T01040015  RH  054%=      5-min Rain = 0
KSB1 131211Z 30013KT 10/02 A3016 RMK A01 T01030015  RH  054%=      5-min Rain = 0
KSB1 131212Z 30014KT 10/01 A3016 RMK A01 T01030014  RH  054%=      5-min Rain = 0
KSB1 131213Z 30014KT 10/02 A3016 RMK A01 T01040015  RH  054%=      5-min Rain = 0
KSB1 131214Z 30013KT 10/02 A3016 RMK A01 T01040015  RH  054%=      5-min Rain = 0
KSB1 131215Z 30013KT 10/02 A3016 RMK A01 T01030015  RH  054%=      5-min Rain = 0
KSB1 131216Z 30013KT 10/02 A3016 RMK A01 T01030015  RH  054%=      5-min Rain = 0
KSB1 131217Z 29012KT 10/02 A3016 RMK A01 T01020015  RH  055%=      5-min Rain = 0
KSB1 131218Z 29012KT 10/02 A3016 RMK A01 T01010016  RH  056%=      5-min Rain = 0
KSB1 131219Z 30012KT 10/02 A3016 RMK A01 T01000016  RH  056%=      5-min Rain = 0
KSB1 131220Z 30012KT 10/02 A3016 RMK A01 T00990016  RH  056%=      5-min Rain = 0
KSB1 131221Z 30012KT 10/02 A3016 RMK A01 T00990016  RH  056%=      5-min Rain = 0
KSB1 131222Z 30014KT 10/02 A3016 RMK A01 T00990017  RH  057%=      5-min Rain = 0
KSB1 131223Z 30013KT 10/02 A3016 RMK A01 T00990017  RH  057%=      5-min Rain = 0
KSB1 131224Z 31013KT 10/02 A3016 RMK A01 T00980017  RH  057%=      5-min Rain = 0
KSB1 131225Z 30013KT 10/02 A3016 RMK A01 T00960017  RH  058%=      5-min Rain = 0
KSB1 131226Z 30014KT 10/02 A3016 RMK A01 T00950017  RH  058%=      5-min Rain = 0
KSB1 131227Z 30014KT 09/02 A3016 RMK A01 T00940017  RH  059%=      5-min Rain = 0
KSB1 131228Z 31015KT 09/02 A3016 RMK A01 T00930018  RH  059%=      5-min Rain = 0
KSB1 131229Z 30015KT 09/02 A3016 RMK A01 T00920018  RH  060%=      5-min Rain = 0
KSB1 131230Z 31015KT 09/02 A3016 RMK A01 T00920018  RH  060%=      5-min Rain = 0
KSB1 131231Z 30015KT 09/02 A3016 RMK A01 T00920018  RH  060%=      5-min Rain = 0
KSB1 131232Z 30016KT 09/02 A3016 RMK A01 T00910017  RH  060%=      5-min Rain = 0
KSB1 131233Z 30015KT 09/02 A3016 RMK A01 T00930016  RH  059%=      5-min Rain = 0
KSB1 131234Z 30015KT 09/02 A3016 RMK A01 T00940017  RH  058%=      5-min Rain = 0
KSB1 131235Z 30015KT 09/02 A3016 RMK A01 T00940017  RH  059%=      5-min Rain = 0
KSB1 131236Z 30014KT 09/02 A3016 RMK A01 T00940018  RH  059%=      5-min Rain = 0
KSB1 131237Z 30015KT 09/02 A3016 RMK A01 T00940017  RH  059%=      5-min Rain = 0
KSB1 131238Z 30015KT 09/02 A3016 RMK A01 T00940017  RH  059%=      5-min Rain = 0
KSB1 131239Z 30015KT 09/02 A3016 RMK A01 T00940018  RH  059%=      5-min Rain = 0
KSB1 131240Z 30016KT 09/02 A3016 RMK A01 T00930017  RH  059%=      5-min Rain = 0
KSB1 131241Z 30016KT 09/02 A3016 RMK A01 T00940017  RH  059%=      5-min Rain = 0
KSB1 131242Z 30015KT 09/02 A3016 RMK A01 T00940017  RH  059%=      5-min Rain = 0
KSB1 131243Z 30015KT 09/02 A3016 RMK A01 T00940017  RH  059%=      5-min Rain = 0
KSB1 131244Z 31014KT 09/02 A3016 RMK A01 T00930017  RH  059%=      5-min Rain = 0
KSB1 131245Z 30016KT 09/02 A3016 RMK A01 T00930017  RH  059%=      5-min Rain = 0
KSB1 131246Z 31015KT 09/02 A3016 RMK A01 T00930017  RH  059%=      5-min Rain = 0
KSB1 131247Z 31015KT 09/02 A3017 RMK A01 T00930016  RH  059%=      5-min Rain = 0
KSB1 131248Z 31017KT 09/02 A3017 RMK A01 T00930017  RH  059%=      5-min Rain = 0
KSB1 131249Z 31016KT 09/02 A3017 RMK A01 T00930017  RH  059%=      5-min Rain = 0
KSB1 131250Z 30016KT 09/02 A3017 RMK A01 T00930017  RH  059%=      5-min Rain = 0
KSB1 131251Z 31015KT 09/02 A3017 RMK A01 T00920016  RH  059%=      5-min Rain = 0
KSB1 131252Z 30015KT 09/02 A3017 RMK A01 T00920016  RH  059%=      5-min Rain = 0
KSB1 131253Z 30016KT 09/02 A3017 RMK A01 T00930016  RH  059%=      5-min Rain = 0
KSB1 131254Z 30017KT 09/02 A3017 RMK A01 T00930015  RH  058%=      5-min Rain = 0
KSB1 131255Z 30017KT 09/01 A3017 RMK A01 T00940014  RH  058%=      5-min Rain = 0
KSB1 131256Z 30017KT 09/01 A3017 RMK A01 T00940014  RH  057%=      5-min Rain = 0
KSB1 131257Z 30017KT 09/01 A3017 RMK A01 T00940014  RH  057%=      5-min Rain = 0
KSB1 131258Z 30016KT 09/01 A3017 RMK A01 T00940014  RH  057%=      5-min Rain = 0
KSB1 131259Z 30016KT 09/01 A3017 RMK A01 T00940014  RH  057%=      5-min Rain = 0
KSB1 131300Z 30017KT 09/01 A3017 RMK A01 T00940014  RH  057%=      5-min Rain = 0
KSB1 131301Z 30016KT 09/01 A3017 RMK A01 T00940014  RH  057%=      5-min Rain = 0
KSB1 131302Z 30015KT 09/02 A3017 RMK A01 T00930015  RH  058%=      5-min Rain = 0
KSB1 131303Z 30016KT 09/01 A3017 RMK A01 T00920014  RH  058%=      5-min Rain = 0
KSB1 131304Z 30013KT 09/01 A3017 RMK A01 T00920014  RH  058%=      5-min Rain = 0
KSB1 131305Z 30016KT 09/02 A3017 RMK A01 T00920015  RH  059%=      5-min Rain = 0
KSB1 131306Z 30016KT 09/02 A3017 RMK A01 T00910015  RH  059%=      5-min Rain = 0
KSB1 131307Z 30016KT 09/02 A3016 RMK A01 T00910015  RH  059%=      5-min Rain = 0
KSB1 131308Z 30017KT 09/02 A3016 RMK A01 T00910015  RH  059%=      5-min Rain = 0
KSB1 131309Z 29016KT 09/02 A3016 RMK A01 T00910015  RH  059%=      5-min Rain = 0
KSB1 131310Z 29014KT 09/02 A3016 RMK A01 T00910015  RH  059%=      5-min Rain = 0
KSB1 131311Z 29015KT 09/02 A3016 RMK A01 T00900015  RH  059%=      5-min Rain = 0
KSB1 131312Z 29017KT 09/02 A3016 RMK A01 T00900015  RH  059%=      5-min Rain = 0
KSB1 131313Z 29016KT 09/02 A3016 RMK A01 T00910015  RH  059%=      5-min Rain = 0
KSB1 131314Z 29018KT 09/02 A3016 RMK A01 T00910015  RH  059%=      5-min Rain = 0
KSB1 131315Z 29018KT 09/02 A3016 RMK A01 T00910015  RH  059%=      5-min Rain = 0
KSB1 131316Z 30016KT 09/02 A3017 RMK A01 T00910015  RH  059%=      5-min Rain = 0
KSB1 131317Z 29016KT 09/02 A3017 RMK A01 T00910015  RH  059%=      5-min Rain = 0
KSB1 131318Z 30017KT 09/02 A3017 RMK A01 T00910016  RH  059%=      5-min Rain = 0
KSB1 131319Z 30019KT 09/02 A3017 RMK A01 T00900015  RH  059%=      5-min Rain = 0
KSB1 131320Z 30019KT 09/02 A3017 RMK A01 T00910015  RH  059%=      5-min Rain = 0
KSB1 131321Z 30019KT 09/02 A3017 RMK A01 T00920015  RH  059%=      5-min Rain = 0
KSB1 131322Z 30019KT 09/02 A3017 RMK A01 T00920015  RH  058%=      5-min Rain = 0
KSB1 131323Z 30019KT 09/02 A3016 RMK A01 T00930015  RH  058%=      5-min Rain = 0
KSB1 131324Z 30016KT 09/02 A3016 RMK A01 T00940015  RH  058%=      5-min Rain = 0
KSB1 131325Z 29018KT 09/02 A3016 RMK A01 T00930015  RH  058%=      5-min Rain = 0
KSB1 131326Z 29017KT 09/01 A3016 RMK A01 T00930014  RH  058%=      5-min Rain = 0
KSB1 131327Z 29016KT 09/02 A3016 RMK A01 T00930015  RH  058%=      5-min Rain = 0
KSB1 131328Z 29017KT 09/02 A3016 RMK A01 T00920015  RH  059%=      5-min Rain = 0
KSB1 131329Z 29016KT 09/02 A3016 RMK A01 T00910015  RH  059%=      5-min Rain = 0
KSB1 131330Z 29017KT 09/02 A3016 RMK A01 T00910016  RH  059%=      5-min Rain = 0
KSB1 131331Z 29018KT 09/02 A3016 RMK A01 T00900015  RH  059%=      5-min Rain = 0
KSB1 131332Z 29018KT 09/02 A3016 RMK A01 T00910015  RH  059%=      5-min Rain = 0
KSB1 131333Z 29018KT 09/02 A3016 RMK A01 T00910015  RH  059%=      5-min Rain = 0
KSB1 131334Z 29018KT 09/02 A3016 RMK A01 T00910015  RH  059%=      5-min Rain = 0
KSB1 131335Z 29018KT 09/02 A3016 RMK A01 T00910015  RH  059%=      5-min Rain = 0
KSB1 131336Z 29017KT 09/02 A3017 RMK A01 T00910015  RH  059%=      5-min Rain = 0
KSB1 131337Z 29017KT 09/02 A3017 RMK A01 T00910015  RH  059%=      5-min Rain = 0
KSB1 131338Z 29017KT 09/02 A3017 RMK A01 T00900015  RH  059%=      5-min Rain = 0
KSB1 131339Z 29016KT 09/02 A3017 RMK A01 T00900016  RH  060%=      5-min Rain = 0
KSB1 131340Z 29016KT 09/02 A3017 RMK A01 T00890015  RH  060%=      5-min Rain = 0
KSB1 131341Z 29017KT 09/01 A3016 RMK A01 T00910014  RH  059%=      5-min Rain = 0
KSB1 131342Z 29017KT 09/01 A3016 RMK A01 T00920014  RH  058%=      5-min Rain = 0
KSB1 131343Z 29015KT 09/02 A3016 RMK A01 T00920015  RH  058%=      5-min Rain = 0
KSB1 131344Z 29014KT 09/02 A3016 RMK A01 T00920015  RH  058%=      5-min Rain = 0
KSB1 131345Z 29013KT 09/02 A3016 RMK A01 T00890015  RH  059%=      5-min Rain = 0
KSB1 131346Z 29012KT 09/02 A3016 RMK A01 T00890015  RH  060%=      5-min Rain = 0
KSB1 131347Z 29013KT 09/02 A3016 RMK A01 T00870015  RH  061%=      5-min Rain = 0
KSB1 131348Z 30013KT 09/02 A3017 RMK A01 T00850015  RH  061%=      5-min Rain = 0
KSB1 131349Z 29015KT 09/02 A3017 RMK A01 T00850015  RH  061%=      5-min Rain = 0
KSB1 131350Z 29015KT 09/02 A3017 RMK A01 T00870015  RH  061%=      5-min Rain = 0
KSB1 131351Z 29016KT 09/02 A3017 RMK A01 T00880015  RH  060%=      5-min Rain = 0
KSB1 131352Z 29015KT 09/02 A3017 RMK A01 T00880015  RH  060%=      5-min Rain = 0
KSB1 131353Z 29017KT 09/01 A3017 RMK A01 T00900014  RH  059%=      5-min Rain = 0
KSB1 131354Z 29017KT 09/01 A3017 RMK A01 T00920013  RH  058%=      5-min Rain = 0
KSB1 131355Z 29016KT 09/01 A3017 RMK A01 T00940012  RH  057%=      5-min Rain = 0
KSB1 131356Z 29014KT 10/01 A3017 RMK A01 T00950012  RH  056%=      5-min Rain = 0
KSB1 131357Z 29016KT 10/01 A3017 RMK A01 T00960011  RH  056%=      5-min Rain = 0
KSB1 131358Z 29017KT 10/01 A3017 RMK A01 T00970010  RH  055%=      5-min Rain = 0
KSB1 131359Z 29017KT 10/01 A3017 RMK A01 T00980011  RH  055%=      5-min Rain = 0
KSB1 131400Z 29017KT 10/01 A3017 RMK A01 T00980010  RH  054%=      5-min Rain = 0
KSB1 131401Z 29016KT 10/01 A3017 RMK A01 T00980009  RH  054%=      5-min Rain = 0
KSB1 131402Z 30016KT 10/01 A3018 RMK A01 T00990009  RH  054%=      5-min Rain = 0
KSB1 131403Z 29018KT 10/01 A3018 RMK A01 T00990009  RH  054%=      5-min Rain = 0
KSB1 131404Z 29019KT 10/01 A3018 RMK A01 T00990010  RH  054%=      5-min Rain = 0
KSB1 131405Z 29016KT 10/01 A3018 RMK A01 T01000009  RH  053%=      5-min Rain = 0
KSB1 131406Z 29016KT 10/01 A3019 RMK A01 T01000009  RH  053%=      5-min Rain = 0
KSB1 131407Z 30016KT 10/01 A3019 RMK A01 T01010009  RH  053%=      5-min Rain = 0
KSB1 131408Z 30017KT 10/01 A3019 RMK A01 T01010008  RH  053%=      5-min Rain = 0
KSB1 131409Z 30017KT 10/01 A302 RMK A01 T01010008  RH  052%=      5-min Rain = 0
KSB1 131410Z 29017KT 10/01 A302 RMK A01 T01020008  RH  052%=      5-min Rain = 0
KSB1 131411Z 29016KT 10/01 A302 RMK A01 T01020010  RH  053%=      5-min Rain = 0
KSB1 131412Z 29016KT 10/01 A302 RMK A01 T01010011  RH  054%=      5-min Rain = 0
KSB1 131413Z 29017KT 10/01 A302 RMK A01 T00990011  RH  054%=      5-min Rain = 0
KSB1 131414Z 29016KT 10/01 A3021 RMK A01 T00990011  RH  054%=      5-min Rain = 0
KSB1 131415Z 29017KT 10/01 A3021 RMK A01 T00990011  RH  054%=      5-min Rain = 0
KSB1 131416Z 29015KT 10/01 A3021 RMK A01 T00990011  RH  054%=      5-min Rain = 0
KSB1 131417Z 29016KT 10/01 A3021 RMK A01 T00990012  RH  054%=      5-min Rain = 0
KSB1 131418Z 29016KT 10/01 A3021 RMK A01 T00990012  RH  055%=      5-min Rain = 0
KSB1 131419Z 29015KT 10/01 A3021 RMK A01 T00980012  RH  055%=      5-min Rain = 0
KSB1 131420Z 28014KT 10/01 A3021 RMK A01 T00980013  RH  056%=      5-min Rain = 0
KSB1 131421Z 29014KT 10/01 A3021 RMK A01 T00950014  RH  057%=      5-min Rain = 0
KSB1 131422Z 29014KT 09/01 A3021 RMK A01 T00930014  RH  058%=      5-min Rain = 0
KSB1 131423Z 28014KT 09/01 A3021 RMK A01 T00910014  RH  059%=      5-min Rain = 0
KSB1 131424Z 28014KT 09/02 A3021 RMK A01 T00910015  RH  059%=      5-min Rain = 0
KSB1 131425Z 29013KT 09/02 A3021 RMK A01 T00900015  RH  060%=      5-min Rain = 0
KSB1 131426Z 28013KT 09/02 A3021 RMK A01 T00900015  RH  060%=      5-min Rain = 0
KSB1 131427Z 28013KT 09/02 A3021 RMK A01 T00900015  RH  060%=      5-min Rain = 0
KSB1 131428Z 28014KT 09/02 A3021 RMK A01 T00890016  RH  060%=      5-min Rain = 0
KSB1 131429Z 28014KT 09/02 A3021 RMK A01 T00870016  RH  061%=      5-min Rain = 0
KSB1 131430Z 28013KT 09/02 A3021 RMK A01 T00860016  RH  061%=      5-min Rain = 0
KSB1 131431Z 28013KT 09/02 A3021 RMK A01 T00850016  RH  062%=      5-min Rain = 0
KSB1 131432Z 28012KT 09/02 A3021 RMK A01 T00850017  RH  062%=      5-min Rain = 0
KSB1 131433Z 28012KT 09/02 A3021 RMK A01 T00850017  RH  062%=      5-min Rain = 0
KSB1 131434Z 28011KT 09/02 A3021 RMK A01 T00850017  RH  062%=      5-min Rain = 0
KSB1 131435Z 28010KT 09/02 A3021 RMK A01 T00850016  RH  062%=      5-min Rain = 0
KSB1 131436Z 28009KT 09/02 A3022 RMK A01 T00850017  RH  062%=      5-min Rain = 0
KSB1 131437Z 28009KT 09/02 A3021 RMK A01 T00860017  RH  062%=      5-min Rain = 0
KSB1 131438Z 28008KT 09/02 A3021 RMK A01 T00860017  RH  062%=      5-min Rain = 0
KSB1 131439Z 28008KT 09/02 A3021 RMK A01 T00870017  RH  062%=      5-min Rain = 0
KSB1 131440Z 28008KT 09/02 A3021 RMK A01 T00870017  RH  061%=      5-min Rain = 0
KSB1 131441Z 28007KT 09/02 A3021 RMK A01 T00880017  RH  061%=      5-min Rain = 0
KSB1 131442Z 28007KT 09/02 A3021 RMK A01 T00880016  RH  061%=      5-min Rain = 0
KSB1 131443Z 28006KT 09/02 A3021 RMK A01 T00890016  RH  060%=      5-min Rain = 0
KSB1 131444Z 28006KT 09/02 A3021 RMK A01 T00890017  RH  060%=      5-min Rain = 0
KSB1 131445Z 28007KT 09/02 A302 RMK A01 T00900017  RH  060%=      5-min Rain = 0
KSB1 131446Z 28008KT 09/02 A302 RMK A01 T00900016  RH  060%=      5-min Rain = 0
KSB1 131447Z 28009KT 09/02 A302 RMK A01 T00900016  RH  060%=      5-min Rain = 0
KSB1 131448Z 29008KT 09/02 A302 RMK A01 T00910016  RH  060%=      5-min Rain = 0
KSB1 131449Z 29009KT 09/02 A302 RMK A01 T00910017  RH  059%=      5-min Rain = 0
KSB1 131450Z 29009KT 09/02 A302 RMK A01 T00920016  RH  059%=      5-min Rain = 0
KSB1 131451Z 28009KT 09/02 A3019 RMK A01 T00930016  RH  059%=      5-min Rain = 0
KSB1 131452Z 28008KT 09/02 A3019 RMK A01 T00930016  RH  058%=      5-min Rain = 0
KSB1 131453Z 28010KT 09/02 A3019 RMK A01 T00940017  RH  058%=      5-min Rain = 0
KSB1 131454Z 28009KT 10/02 A3019 RMK A01 T00950017  RH  058%=      5-min Rain = 0
KSB1 131455Z 28009KT 10/02 A3019 RMK A01 T00950017  RH  058%=      5-min Rain = 0
KSB1 131456Z 29009KT 10/02 A3019 RMK A01 T00960018  RH  058%=      5-min Rain = 0
KSB1 131457Z 29010KT 10/02 A302 RMK A01 T00970017  RH  057%=      5-min Rain = 0
KSB1 131458Z 29010KT 10/02 A302 RMK A01 T00980017  RH  057%=      5-min Rain = 0
KSB1 131459Z 29010KT 10/02 A302 RMK A01 T00980017  RH  057%=      5-min Rain = 0
KSB1 131500Z 29010KT 10/02 A3019 RMK A01 T00980016  RH  057%=      5-min Rain = 0
KSB1 131501Z 28010KT 10/02 A3019 RMK A01 T00990016  RH  056%=      5-min Rain = 0
KSB1 131502Z 28009KT 10/02 A3019 RMK A01 T01000016  RH  056%=      5-min Rain = 0
KSB1 131503Z 28010KT 10/02 A3019 RMK A01 T01010016  RH  056%=      5-min Rain = 0
KSB1 131504Z 28010KT 10/02 A3019 RMK A01 T01020016  RH  055%=      5-min Rain = 0
KSB1 131505Z 28010KT 10/02 A3019 RMK A01 T01020017  RH  055%=      5-min Rain = 0
KSB1 131506Z 29010KT 10/02 A302 RMK A01 T01030017  RH  055%=      5-min Rain = 0
KSB1 131507Z 29011KT 10/02 A302 RMK A01 T01030015  RH  054%=      5-min Rain = 0
KSB1 131508Z 29012KT 10/02 A302 RMK A01 T01040015  RH  054%=      5-min Rain = 0
KSB1 131509Z 29011KT 10/02 A3021 RMK A01 T01040015  RH  054%=      5-min Rain = 0
KSB1 131510Z 29013KT 11/01 A3021 RMK A01 T01050014  RH  053%=      5-min Rain = 0
KSB1 131511Z 29013KT 11/01 A3021 RMK A01 T01070012  RH  052%=      5-min Rain = 0
KSB1 131512Z 29014KT 11/01 A3021 RMK A01 T01080012  RH  052%=      5-min Rain = 0
KSB1 131513Z 29013KT 11/01 A3021 RMK A01 T01080013  RH  052%=      5-min Rain = 0
KSB1 131514Z 29013KT 11/01 A3021 RMK A01 T01070014  RH  052%=      5-min Rain = 0
KSB1 131515Z 29014KT 11/01 A3021 RMK A01 T01070014  RH  053%=      5-min Rain = 0
KSB1 131516Z 29014KT 11/01 A3021 RMK A01 T01070013  RH  052%=      5-min Rain = 0
KSB1 131517Z 29013KT 11/01 A3021 RMK A01 T01070013  RH  052%=      5-min Rain = 0
KSB1 131518Z 28014KT 11/01 A3021 RMK A01 T01080014  RH  052%=      5-min Rain = 0
KSB1 131519Z 28014KT 11/01 A3021 RMK A01 T01080013  RH  052%=      5-min Rain = 0
KSB1 131520Z 28014KT 11/01 A3021 RMK A01 T01080014  RH  052%=      5-min Rain = 0
KSB1 131521Z 28014KT 11/01 A3021 RMK A01 T01080014  RH  052%=      5-min Rain = 0
KSB1 131522Z 28013KT 11/02 A3021 RMK A01 T01080015  RH  052%=      5-min Rain = 0
KSB1 131523Z 28014KT 11/02 A3021 RMK A01 T01090016  RH  053%=      5-min Rain = 0
KSB1 131524Z 28014KT 11/02 A3021 RMK A01 T01080015  RH  052%=      5-min Rain = 0
KSB1 131525Z 28014KT 11/02 A3021 RMK A01 T01080015  RH  052%=      5-min Rain = 0
KSB1 131526Z 28012KT 11/02 A3021 RMK A01 T01090016  RH  053%=      5-min Rain = 0
KSB1 131527Z 28016KT 11/02 A3021 RMK A01 T01090016  RH  052%=      5-min Rain = 0
KSB1 131528Z 27015KT 11/02 A3021 RMK A01 T01100015  RH  052%=      5-min Rain = 0
KSB1 131529Z 28014KT 11/02 A3021 RMK A01 T01100015  RH  052%=      5-min Rain = 0
KSB1 131530Z 28013KT 11/02 A3021 RMK A01 T01100016  RH  052%=      5-min Rain = 0
KSB1 131531Z 28013G18KT 11/02 A3021 RMK A01 T01110017  RH  052%=      5-min Rain = 0
KSB1 131532Z 27015KT 11/02 A3021 RMK A01 T01110016  RH  052%=      5-min Rain = 0
KSB1 131533Z 27014KT 11/02 A3021 RMK A01 T01120016  RH  052%=      5-min Rain = 0
KSB1 131534Z 28015KT 11/02 A3021 RMK A01 T01120016  RH  052%=      5-min Rain = 0
KSB1 131535Z 28013KT 11/02 A3021 RMK A01 T01120017  RH  052%=      5-min Rain = 0
KSB1 131536Z 28014KT 11/02 A3021 RMK A01 T01120017  RH  052%=      5-min Rain = 0
KSB1 131537Z 28013KT 11/02 A3021 RMK A01 T01120017  RH  052%=      5-min Rain = 0
KSB1 131538Z 27013G18KT 11/02 A3021 RMK A01 T01130017  RH  052%=      5-min Rain = 0
KSB1 131539Z 27015KT 11/02 A3021 RMK A01 T01130017  RH  051%=      5-min Rain = 0
KSB1 131540Z 27015KT 11/02 A3021 RMK A01 T01140016  RH  051%=      5-min Rain = 0
KSB1 131541Z 27015KT 11/02 A3021 RMK A01 T01130016  RH  051%=      5-min Rain = 0
KSB1 131542Z 27015KT 11/02 A3021 RMK A01 T01130016  RH  051%=      5-min Rain = 0
KSB1 131543Z 27016KT 11/02 A3021 RMK A01 T01120017  RH  052%=      5-min Rain = 0
KSB1 131544Z 27016KT 11/02 A3021 RMK A01 T01120016  RH  052%=      5-min Rain = 0
KSB1 131545Z 27016KT 11/02 A3021 RMK A01 T01120016  RH  052%=      5-min Rain = 0
KSB1 131546Z 27017KT 11/02 A3021 RMK A01 T01120016  RH  052%=      5-min Rain = 0
KSB1 131547Z 28014KT 11/02 A3021 RMK A01 T01120016  RH  052%=      5-min Rain = 0
KSB1 131548Z 28014KT 11/02 A3021 RMK A01 T01130017  RH  052%=      5-min Rain = 0
KSB1 131549Z 28015KT 11/02 A3021 RMK A01 T01130016  RH  051%=      5-min Rain = 0
KSB1 131550Z 28014KT 11/02 A3021 RMK A01 T01130016  RH  051%=      5-min Rain = 0
KSB1 131551Z 28015KT 11/02 A3021 RMK A01 T01140017  RH  051%=      5-min Rain = 0
KSB1 131552Z 28012KT 11/02 A3021 RMK A01 T01130019  RH  052%=      5-min Rain = 0
KSB1 131553Z 28015KT 11/02 A3021 RMK A01 T01140018  RH  052%=      5-min Rain = 0
KSB1 131554Z 28016KT 11/02 A3021 RMK A01 T01140016  RH  051%=      5-min Rain = 0
KSB1 131555Z 28015KT 11/02 A3021 RMK A01 T01140016  RH  051%=      5-min Rain = 0
KSB1 131556Z 28016KT 11/02 A3021 RMK A01 T01130017  RH  052%=      5-min Rain = 0
KSB1 131557Z 28017KT 11/02 A3021 RMK A01 T01130017  RH  051%=      5-min Rain = 0
KSB1 131558Z 28016KT 11/02 A3021 RMK A01 T01130016  RH  051%=      5-min Rain = 0
KSB1 131559Z 28014KT 11/02 A3021 RMK A01 T01140017  RH  052%=      5-min Rain = 0
KSB1 131600Z 28015KT 12/02 A3022 RMK A01 T01150018  RH  051%=      5-min Rain = 0
KSB1 131601Z 28015KT 12/02 A3022 RMK A01 T01160018  RH  051%=      5-min Rain = 0
KSB1 131602Z 28015KT 12/02 A3021 RMK A01 T01160017  RH  051%=      5-min Rain = 0
KSB1 131603Z 28015KT 12/02 A3021 RMK A01 T01160018  RH  051%=      5-min Rain = 0
KSB1 131604Z 28016KT 12/02 A3021 RMK A01 T01160018  RH  051%=      5-min Rain = 0
KSB1 131605Z 28017KT 12/02 A3021 RMK A01 T01160017  RH  051%=      5-min Rain = 0
KSB1 131606Z 28015KT 12/02 A3021 RMK A01 T01160018  RH  051%=      5-min Rain = 0
KSB1 131607Z 28012KT 12/02 A3021 RMK A01 T01160019  RH  051%=      5-min Rain = 0
KSB1 131608Z 28013KT 12/02 A3021 RMK A01 T01180020  RH  051%=      5-min Rain = 0
KSB1 131609Z 28015KT 12/02 A3021 RMK A01 T01190019  RH  050%=      5-min Rain = 0
KSB1 131610Z 28013KT 12/02 A3021 RMK A01 T01190018  RH  050%=      5-min Rain = 0
KSB1 131611Z 28015KT 12/02 A3021 RMK A01 T01190019  RH  050%=      5-min Rain = 0
KSB1 131612Z 28014KT 12/02 A3021 RMK A01 T01190019  RH  050%=      5-min Rain = 0
KSB1 131613Z 28013KT 12/02 A3021 RMK A01 T01200020  RH  050%=      5-min Rain = 0
KSB1 131614Z 28013KT 12/02 A3022 RMK A01 T01210020  RH  050%=      5-min Rain = 0
KSB1 131615Z 28013KT 12/02 A3022 RMK A01 T01220020  RH  050%=      5-min Rain = 0
KSB1 131616Z 28014KT 12/02 A3021 RMK A01 T01220020  RH  050%=      5-min Rain = 0
KSB1 131617Z 28012KT 12/02 A3021 RMK A01 T01220019  RH  049%=      5-min Rain = 0
KSB1 131618Z 28013KT 12/02 A3021 RMK A01 T01230019  RH  049%=      5-min Rain = 0
KSB1 131619Z 28016KT 12/02 A3021 RMK A01 T01240017  RH  048%=      5-min Rain = 0
KSB1 131620Z 28015KT 12/02 A3021 RMK A01 T01240018  RH  048%=      5-min Rain = 0
KSB1 131621Z 28013KT 12/02 A3021 RMK A01 T01240018  RH  048%=      5-min Rain = 0
KSB1 131622Z 28013KT 13/02 A3021 RMK A01 T01250019  RH  048%=      5-min Rain = 0
KSB1 131623Z 28013KT 13/02 A3021 RMK A01 T01260020  RH  048%=      5-min Rain = 0
KSB1 131624Z 28012KT 13/02 A3022 RMK A01 T01270021  RH  048%=      5-min Rain = 0
KSB1 131625Z 28011KT 13/02 A3022 RMK A01 T01280022  RH  048%=      5-min Rain = 0
KSB1 131626Z 28014KT 13/02 A3022 RMK A01 T01280021  RH  048%=      5-min Rain = 0
KSB1 131627Z 28014KT 13/02 A3022 RMK A01 T01290020  RH  048%=      5-min Rain = 0
KSB1 131628Z 28014KT 13/02 A3022 RMK A01 T01290018  RH  047%=      5-min Rain = 0
KSB1 131629Z 29013KT 13/02 A3022 RMK A01 T01280017  RH  047%=      5-min Rain = 0
KSB1 131630Z 28015KT 13/02 A3022 RMK A01 T01280017  RH  047%=      5-min Rain = 0
KSB1 131631Z 28014KT 13/02 A3022 RMK A01 T01280015  RH  046%=      5-min Rain = 0
KSB1 131632Z 28013KT 13/02 A3022 RMK A01 T01280016  RH  046%=      5-min Rain = 0
KSB1 131633Z 29014KT 13/02 A3021 RMK A01 T01290017  RH  046%=      5-min Rain = 0
KSB1 131634Z 28012G17KT 13/02 A3021 RMK A01 T01300016  RH  046%=      5-min Rain = 0
KSB1 131635Z 28013KT 13/02 A3021 RMK A01 T01310017  RH  046%=      5-min Rain = 0
KSB1 131636Z 28012KT 13/02 A3021 RMK A01 T01320015  RH  045%=      5-min Rain = 0
KSB1 131637Z 28014KT 13/02 A3021 RMK A01 T01320016  RH  045%=      5-min Rain = 0
KSB1 131638Z 28013KT 13/02 A3021 RMK A01 T01320015  RH  045%=      5-min Rain = 0
KSB1 131639Z 28015KT 13/01 A3021 RMK A01 T01320014  RH  045%=      5-min Rain = 0
KSB1 131640Z 28012KT 13/01 A3021 RMK A01 T01320014  RH  045%=      5-min Rain = 0
KSB1 131641Z 28014KT 13/02 A3021 RMK A01 T01330015  RH  045%=      5-min Rain = 0
KSB1 131642Z 28016KT 13/01 A3021 RMK A01 T01340014  RH  044%=      5-min Rain = 0
KSB1 131643Z 28014KT 13/01 A3021 RMK A01 T01340014  RH  044%=      5-min Rain = 0
KSB1 131644Z 28014KT 13/01 A3021 RMK A01 T01340014  RH  044%=      5-min Rain = 0
KSB1 131645Z 28014KT 13/01 A3021 RMK A01 T01340014  RH  044%=      5-min Rain = 0
KSB1 131646Z 28014KT 13/01 A3021 RMK A01 T01340014  RH  044%=      5-min Rain = 0
KSB1 131647Z 28014KT 13/02 A3021 RMK A01 T01330015  RH  044%=      5-min Rain = 0
KSB1 131648Z 28014KT 13/01 A3021 RMK A01 T01340014  RH  044%=      5-min Rain = 0
KSB1 131649Z 28012KT 14/02 A3021 RMK A01 T01350015  RH  044%=      5-min Rain = 0
KSB1 131650Z 28014KT 14/02 A3021 RMK A01 T01360015  RH  044%=      5-min Rain = 0
KSB1 131651Z 28013KT 14/02 A3021 RMK A01 T01370015  RH  044%=      5-min Rain = 0
KSB1 131652Z 28014KT 14/01 A3021 RMK A01 T01370014  RH  043%=      5-min Rain = 0
KSB1 131653Z 28013KT 14/01 A3021 RMK A01 T01370013  RH  043%=      5-min Rain = 0
KSB1 131654Z 27011KT 14/01 A3021 RMK A01 T01380013  RH  043%=      5-min Rain = 0
KSB1 131655Z 28010KT 14/01 A3021 RMK A01 T01380013  RH  042%=      5-min Rain = 0
KSB1 131656Z 29010KT 14/01 A3021 RMK A01 T01400014  RH  042%=      5-min Rain = 0
KSB1 131657Z 29011KT 14/01 A3021 RMK A01 T01410013  RH  042%=      5-min Rain = 0
KSB1 131658Z 29011KT 14/01 A3022 RMK A01 T01410011  RH  041%=      5-min Rain = 0
KSB1 131659Z 30008KT 14/01 A3022 RMK A01 T01400011  RH  042%=      5-min Rain = 0
KSB1 131700Z 29010KT 14/01 A3022 RMK A01 T01400013  RH  042%=      5-min Rain = 0
KSB1 131701Z 31009KT 14/01 A3022 RMK A01 T01400013  RH  042%=      5-min Rain = 0
KSB1 131702Z 30007KT 14/01 A3022 RMK A01 T01410014  RH  042%=      5-min Rain = 0
KSB1 131703Z 32009KT 14/01 A3022 RMK A01 T01410014  RH  042%=      5-min Rain = 0
KSB1 131704Z 30008KT 14/01 A3022 RMK A01 T01410014  RH  042%=      5-min Rain = 0
KSB1 131705Z 30007KT 14/01 A3022 RMK A01 T01410014  RH  042%=      5-min Rain = 0
KSB1 131706Z 30007KT 14/02 A3022 RMK A01 T01410016  RH  043%=      5-min Rain = 0
KSB1 131707Z 29012KT 14/02 A3022 RMK A01 T01420015  RH  042%=      5-min Rain = 0
KSB1 131708Z 30011KT 14/01 A3022 RMK A01 T01430013  RH  041%=      5-min Rain = 0
KSB1 131709Z 28007KT 14/01 A3021 RMK A01 T01420012  RH  041%=      5-min Rain = 0
KSB1 131710Z 28009KT 14/01 A3021 RMK A01 T01410013  RH  042%=      5-min Rain = 0
KSB1 131711Z 30011KT 14/02 A3022 RMK A01 T01430016  RH  042%=      5-min Rain = 0
KSB1 131712Z 30010KT 15/01 A3021 RMK A01 T01450014  RH  041%=      5-min Rain = 0
KSB1 131713Z 27010KT 14/01 A3021 RMK A01 T01440013  RH  041%=      5-min Rain = 0
KSB1 131714Z 29012KT 15/01 A3021 RMK A01 T01450014  RH  041%=      5-min Rain = 0
KSB1 131715Z 28012KT 15/01 A3021 RMK A01 T01470012  RH  040%=      5-min Rain = 0
KSB1 131716Z 29011KT 15/01 A3021 RMK A01 T01460010  RH  040%=      5-min Rain = 0
KSB1 131717Z 28012KT 15/01 A3021 RMK A01 T01460013  RH  040%=      5-min Rain = 0
KSB1 131718Z 28013KT 15/01 A3021 RMK A01 T01470010  RH  039%=      5-min Rain = 0
KSB1 131719Z 29011KT 15/01 A3021 RMK A01 T01480010  RH  039%=      5-min Rain = 0
KSB1 131720Z 30013KT 15/01 A3021 RMK A01 T01480010  RH  039%=      5-min Rain = 0
KSB1 131721Z 28013KT 15/01 A302 RMK A01 T01480009  RH  039%=      5-min Rain = 0
KSB1 131722Z 27012KT 15/01 A302 RMK A01 T01490010  RH  039%=      5-min Rain = 0
KSB1 131723Z 28012KT 15/01 A302 RMK A01 T01500010  RH  039%=      5-min Rain = 0
KSB1 131724Z 29014KT 15/01 A302 RMK A01 T01510010  RH  038%=      5-min Rain = 0
KSB1 131725Z 29015KT 15/01 A302 RMK A01 T01500009  RH  038%=      5-min Rain = 0
KSB1 131726Z 29014KT 15/01 A302 RMK A01 T01490009  RH  038%=      5-min Rain = 0
KSB1 131727Z 29013KT 15/01 A302 RMK A01 T01500010  RH  039%=      5-min Rain = 0
KSB1 131728Z 29012KT 15/01 A302 RMK A01 T01510011  RH  039%=      5-min Rain = 0
KSB1 131729Z 29012KT 15/01 A302 RMK A01 T01530010  RH  038%=      5-min Rain = 0
KSB1 131730Z 29012KT 15/01 A302 RMK A01 T01530010  RH  038%=      5-min Rain = 0
KSB1 131731Z 28012KT 15/01 A302 RMK A01 T01520010  RH  038%=      5-min Rain = 0
KSB1 131732Z 29013KT 15/01 A302 RMK A01 T01540010  RH  038%=      5-min Rain = 0
KSB1 131733Z 29013KT 15/01 A302 RMK A01 T01540009  RH  037%=      5-min Rain = 0
KSB1 131734Z 29014KT 15/01 A302 RMK A01 T01530009  RH  038%=      5-min Rain = 0
KSB1 131735Z 29014KT 15/01 A302 RMK A01 T01530008  RH  037%=      5-min Rain = 0
KSB1 131736Z 29014KT 15/01 A302 RMK A01 T01530009  RH  038%=      5-min Rain = 0
KSB1 131737Z 28012KT 15/01 A302 RMK A01 T01520009  RH  038%=      5-min Rain = 0
KSB1 131738Z 29012KT 15/01 A302 RMK A01 T01530009  RH  038%=      5-min Rain = 0
KSB1 131739Z 29014KT 15/01 A302 RMK A01 T01540011  RH  038%=      5-min Rain = 0
KSB1 131740Z 29012KT 16/01 A3019 RMK A01 T01550011  RH  038%=      5-min Rain = 0
KSB1 131741Z 29014KT 16/01 A3019 RMK A01 T01550012  RH  038%=      5-min Rain = 0
KSB1 131742Z 29012KT 15/01 A3019 RMK A01 T01540011  RH  038%=      5-min Rain = 0
KSB1 131743Z 29012KT 15/01 A3019 RMK A01 T01540011  RH  038%=      5-min Rain = 0
KSB1 131744Z 29012KT 15/01 A3019 RMK A01 T01530011  RH  038%=      5-min Rain = 0
KSB1 131745Z 29012KT 15/01 A3019 RMK A01 T01530011  RH  038%=      5-min Rain = 0
KSB1 131746Z 30009KT 15/01 A3019 RMK A01 T01540013  RH  038%=      5-min Rain = 0
KSB1 131747Z 29011KT 16/01 A3019 RMK A01 T01550014  RH  038%=      5-min Rain = 0
KSB1 131748Z 29012KT 16/01 A3019 RMK A01 T01560013  RH  038%=      5-min Rain = 0
KSB1 131749Z 29013KT 16/01 A3019 RMK A01 T01560012  RH  038%=      5-min Rain = 0
KSB1 131750Z 28012KT 16/01 A3019 RMK A01 T01570011  RH  037%=      5-min Rain = 0
KSB1 131751Z 28010KT 16/01 A3019 RMK A01 T01570010  RH  037%=      5-min Rain = 0
KSB1 131752Z 30010KT 16/01 A3019 RMK A01 T01580011  RH  037%=      5-min Rain = 0
KSB1 131753Z 29010KT 16/01 A3019 RMK A01 T01580011  RH  037%=      5-min Rain = 0
KSB1 131754Z 30009KT 16/01 A3019 RMK A01 T01570013  RH  037%=      5-min Rain = 0
KSB1 131755Z 29010KT 16/01 A3018 RMK A01 T01590011  RH  037%=      5-min Rain = 0
KSB1 131756Z 29009KT 16/01 A3019 RMK A01 T01590014  RH  037%=      5-min Rain = 0
KSB1 131757Z 28011KT 16/01 A3018 RMK A01 T01600013  RH  037%=      5-min Rain = 0
KSB1 131758Z 29010KT 16/01 A3018 RMK A01 T01610012  RH  036%=      5-min Rain = 0
KSB1 131759Z 29011KT 16/01 A3018 RMK A01 T01610012  RH  036%=      5-min Rain = 0
KSB1 131800Z 29011KT 16/01 A3018 RMK A01 T01620012  RH  036%=      5-min Rain = 0
KSB1 131801Z 29010KT 16/01 A3018 RMK A01 T01620012  RH  036%=      5-min Rain = 0
KSB1 131802Z 29010KT 16/02 A3018 RMK A01 T01620015  RH  037%=      5-min Rain = 0
KSB1 131803Z 27011KT 16/01 A3018 RMK A01 T01640011  RH  036%=      5-min Rain = 0
KSB1 131804Z 27010KT 17/01 A3018 RMK A01 T01650012  RH  036%=      5-min Rain = 0
KSB1 131805Z 28008KT 17/01 A3018 RMK A01 T01650010  RH  035%=      5-min Rain = 0
KSB1 131806Z 26010KT 17/01 A3017 RMK A01 T01670014  RH  035%=      5-min Rain = 0
KSB1 131807Z 26009KT 17/01 A3018 RMK A01 T01690010  RH  034%=      5-min Rain = 0
KSB1 131808Z 26007KT 17/01 A3017 RMK A01 T01690011  RH  034%=      5-min Rain = 0
KSB1 131809Z 27009KT 17/01 A3017 RMK A01 T01690011  RH  034%=      5-min Rain = 0
KSB1 131810Z 24007KT 17/01 A3018 RMK A01 T01680012  RH  035%=      5-min Rain = 0
KSB1 131811Z 25012KT 17/01 A3018 RMK A01 T01690011  RH  034%=      5-min Rain = 0
KSB1 131812Z 26012KT 17/01 A3018 RMK A01 T01680005  RH  033%=      5-min Rain = 0
KSB1 131813Z 26010KT 17/00 A3018 RMK A01 T01670002  RH  033%=      5-min Rain = 0
KSB1 131814Z 25009KT 17/01 A3018 RMK A01 T01680005  RH  033%=      5-min Rain = 0
KSB1 131815Z 26007KT 17/01 A3018 RMK A01 T01680007  RH  034%=      5-min Rain = 0
KSB1 131816Z 26010KT 17/01 A3018 RMK A01 T01700009  RH  034%=      5-min Rain = 0
KSB1 131817Z 27010KT 17/01 A3017 RMK A01 T01720005  RH  032%=      5-min Rain = 0
KSB1 131818Z 28010KT 17/01 A3017 RMK A01 T01710005  RH  032%=      5-min Rain = 0
KSB1 131819Z 27009KT 17/01 A3017 RMK A01 T01690005  RH  033%=      5-min Rain = 0
KSB1 131820Z 25009KT 17/01 A3017 RMK A01 T01690009  RH  034%=      5-min Rain = 0
KSB1 131821Z 25008KT 17/01 A3017 RMK A01 T01700010  RH  034%=      5-min Rain = 0
KSB1 131822Z 24009KT 17/01 A3017 RMK A01 T01700009  RH  034%=      5-min Rain = 0
KSB1 131823Z 25008KT 17/01 A3017 RMK A01 T01710010  RH  034%=      5-min Rain = 0
KSB1 131824Z 26008KT 17/01 A3017 RMK A01 T01710010  RH  034%=      5-min Rain = 0
KSB1 131825Z 25009KT 17/01 A3017 RMK A01 T01720012  RH  034%=      5-min Rain = 0
KSB1 131826Z 25008KT 17/01 A3017 RMK A01 T01720011  RH  034%=      5-min Rain = 0
KSB1 131827Z 28007KT 17/01 A3017 RMK A01 T01720013  RH  034%=      5-min Rain = 0
KSB1 131828Z 28008KT 17/01 A3017 RMK A01 T01730010  RH  033%=      5-min Rain = 0
KSB1 131829Z 24008KT 17/01 A3016 RMK A01 T01730009  RH  033%=      5-min Rain = 0
KSB1 131830Z 25006KT 17/01 A3017 RMK A01 T01730009  RH  033%=      5-min Rain = 0
KSB1 131831Z 24006KT 17/01 A3017 RMK A01 T01730009  RH  033%=      5-min Rain = 0
KSB1 131832Z 23006KT 17/01 A3017 RMK A01 T01730011  RH  033%=      5-min Rain = 0
KSB1 131833Z 24007KT 17/01 A3017 RMK A01 T01740010  RH  033%=      5-min Rain = 0
KSB1 131834Z 25007KT 17/01 A3017 RMK A01 T01730010  RH  033%=      5-min Rain = 0
KSB1 131835Z 25009KT 17/01 A3016 RMK A01 T01740010  RH  033%=      5-min Rain = 0
KSB1 131836Z 24008KT 18/01 A3016 RMK A01 T01750010  RH  033%=      5-min Rain = 0
KSB1 131837Z 24010KT 17/01 A3016 RMK A01 T01740007  RH  032%=      5-min Rain = 0
KSB1 131838Z 25007KT 17/00 A3016 RMK A01 T01720004  RH  032%=      5-min Rain = 0
KSB1 131839Z 27007KT 17/01 A3016 RMK A01 T01690006  RH  033%=      5-min Rain = 0
KSB1 131840Z 24006KT 17/01 A3016 RMK A01 T01700009  RH  034%=      5-min Rain = 0
KSB1 131841Z 23009KT 17/01 A3016 RMK A01 T01730008  RH  033%=      5-min Rain = 0
KSB1 131842Z 24010KT 17/01 A3016 RMK A01 T01730007  RH  033%=      5-min Rain = 0
KSB1 131843Z 23010KT 17/01 A3016 RMK A01 T01720008  RH  033%=      5-min Rain = 0
KSB1 131844Z 23008KT 17/01 A3016 RMK A01 T01710006  RH  033%=      5-min Rain = 0
KSB1 131845Z 24008KT 17/01 A3016 RMK A01 T01700006  RH  033%=      5-min Rain = 0
KSB1 131846Z 25009KT 17/01 A3016 RMK A01 T01720011  RH  034%=      5-min Rain = 0
KSB1 131847Z 25008KT 17/01 A3016 RMK A01 T01740006  RH  032%=      5-min Rain = 0
KSB1 131848Z 25006KT 17/01 A3016 RMK A01 T01720007  RH  033%=      5-min Rain = 0
KSB1 131849Z 23008KT 17/01 A3015 RMK A01 T01720008  RH  033%=      5-min Rain = 0
KSB1 131850Z 24008KT 17/01 A3015 RMK A01 T01720007  RH  033%=      5-min Rain = 0
KSB1 131851Z 25008KT 17/01 A3015 RMK A01 T01720006  RH  032%=      5-min Rain = 0
KSB1 131852Z 25008KT 17/01 A3015 RMK A01 T01720008  RH  033%=      5-min Rain = 0
KSB1 131853Z 25008KT 18/01 A3015 RMK A01 T01750011  RH  033%=      5-min Rain = 0
KSB1 131854Z 24008KT 18/01 A3015 RMK A01 T01750010  RH  033%=      5-min Rain = 0
KSB1 131855Z 22008KT 18/01 A3015 RMK A01 T01760008  RH  032%=      5-min Rain = 0
KSB1 131856Z 24010KT 17/01 A3015 RMK A01 T01740005  RH  032%=      5-min Rain = 0
KSB1 131857Z 24009KT 17/01 A3015 RMK A01 T01730005  RH  032%=      5-min Rain = 0
KSB1 131858Z 24008KT 17/01 A3015 RMK A01 T01730005  RH  032%=      5-min Rain = 0
KSB1 131859Z 23008KT 17/01 A3015 RMK A01 T01730006  RH  032%=      5-min Rain = 0
KSB1 131900Z 22009KT 17/01 A3015 RMK A01 T01740008  RH  033%=      5-min Rain = 0
KSB1 131901Z 23008KT 18/01 A3014 RMK A01 T01770010  RH  033%=      5-min Rain = 0
KSB1 131902Z 23009KT 18/01 A3014 RMK A01 T01780010  RH  032%=      5-min Rain = 0
KSB1 131903Z 23009KT 18/01 A3014 RMK A01 T01800009  RH  032%=      5-min Rain = 0
KSB1 131904Z 24008KT 18/01 A3014 RMK A01 T01790006  RH  031%=      5-min Rain = 0
KSB1 131905Z 23008KT 18/01 A3014 RMK A01 T01780007  RH  032%=      5-min Rain = 0
KSB1 131906Z 21009KT 18/01 A3014 RMK A01 T01790009  RH  032%=      5-min Rain = 0
KSB1 131907Z 22008KT 18/01 A3014 RMK A01 T01800009  RH  032%=      5-min Rain = 0
KSB1 131908Z 26008KT 18/01 A3014 RMK A01 T01780009  RH  032%=      5-min Rain = 0
KSB1 131909Z 26007KT 18/00 A3014 RMK A01 T01790002  RH  030%=      5-min Rain = 0
KSB1 131910Z 24006KT 18/00 A3014 RMK A01 T01820001  RH  030%=      5-min Rain = 0
KSB1 131911Z 25008KT 18/01 A3014 RMK A01 T01830010  RH  031%=      5-min Rain = 0
KSB1 131912Z 26010KT 18/01 A3014 RMK A01 T01820005  RH  030%=      5-min Rain = 0
KSB1 131913Z 25007KT 18/M00 A3014 RMK A01 T01821002  RH  029%=      5-min Rain = 0
KSB1 131914Z 26009KT 18/M00 A3014 RMK A01 T01821001  RH  029%=      5-min Rain = 0
KSB1 131915Z 27008KT 18/00 A3014 RMK A01 T01840000  RH  029%=      5-min Rain = 0
KSB1 131916Z 27008KT 19/M00 A3014 RMK A01 T01861002  RH  028%=      5-min Rain = 0
KSB1 131917Z 26006KT 18/M00 A3014 RMK A01 T01841004  RH  028%=      5-min Rain = 0
KSB1 131918Z 28007KT 18/M00 A3014 RMK A01 T01831002  RH  029%=      5-min Rain = 0
KSB1 131919Z 27010KT 18/M00 A3014 RMK A01 T01841001  RH  029%=      5-min Rain = 0
KSB1 131920Z 25007G12KT 19/00 A3013 RMK A01 T01860000  RH  029%=      5-min Rain = 0
KSB1 131921Z 28010KT 19/00 A3013 RMK A01 T01880002  RH  029%=      5-min Rain = 0
KSB1 131922Z 28008KT 19/M01 A3014 RMK A01 T01871005  RH  027%=      5-min Rain = 0
KSB1 131923Z 27008KT 18/M00 A3014 RMK A01 T01841003  RH  028%=      5-min Rain = 0
KSB1 131924Z 27010KT 18/M00 A3014 RMK A01 T01841003  RH  028%=      5-min Rain = 0
KSB1 131925Z 26011KT 18/M00 A3014 RMK A01 T01841003  RH  028%=      5-min Rain = 0
KSB1 131926Z 26010KT 18/M00 A3014 RMK A01 T01841002  RH  028%=      5-min Rain = 0
KSB1 131927Z 28009KT 19/M00 A3014 RMK A01 T01851001  RH  029%=      5-min Rain = 0
KSB1 131928Z 27008KT 19/00 A3014 RMK A01 T018600-0  RH  028%=      5-min Rain = 0
KSB1 131929Z 27010KT 19/00 A3013 RMK A01 T01870003  RH  029%=      5-min Rain = 0
KSB1 131930Z 27011KT 19/M00 A3013 RMK A01 T01881001  RH  028%=      5-min Rain = 0
KSB1 131931Z 28008KT 19/00 A3013 RMK A01 T018700-0  RH  028%=      5-min Rain = 0
KSB1 131932Z 26010KT 19/00 A3013 RMK A01 T01870002  RH  029%=      5-min Rain = 0
KSB1 131933Z 26010KT 19/00 A3013 RMK A01 T01890003  RH  029%=      5-min Rain = 0
KSB1 131934Z 25010KT 19/00 A3013 RMK A01 T01880000  RH  028%=      5-min Rain = 0
KSB1 131935Z 25011KT 19/M00 A3013 RMK A01 T01871001  RH  028%=      5-min Rain = 0
KSB1 131936Z 26009KT 19/M00 A3013 RMK A01 T01861002  RH  028%=      5-min Rain = 0
KSB1 131937Z 27011KT 19/00 A3013 RMK A01 T01860002  RH  029%=      5-min Rain = 0
KSB1 131938Z 26012KT 19/00 A3013 RMK A01 T01870002  RH  029%=      5-min Rain = 0
KSB1 131939Z 26011KT 19/00 A3013 RMK A01 T01870002  RH  029%=      5-min Rain = 0
KSB1 131940Z 25013KT 19/00 A3013 RMK A01 T01870002  RH  029%=      5-min Rain = 0
KSB1 131941Z 26010KT 19/00 A3013 RMK A01 T01880000  RH  028%=      5-min Rain = 0
KSB1 131942Z 26012KT 19/00 A3013 RMK A01 T01870001  RH  029%=      5-min Rain = 0
KSB1 131943Z 27010KT 19/M00 A3013 RMK A01 T01861001  RH  028%=      5-min Rain = 0
KSB1 131944Z 27012G17KT 19/00 A3013 RMK A01 T01870001  RH  029%=      5-min Rain = 0
KSB1 131945Z 27014KT 19/M00 A3013 RMK A01 T01881001  RH  028%=      5-min Rain = 0
KSB1 131946Z 28014KT 19/M00 A3012 RMK A01 T01871002  RH  028%=      5-min Rain = 0
KSB1 131947Z 27010KT 19/00 A3013 RMK A01 T018600-0  RH  028%=      5-min Rain = 0
KSB1 131948Z 28011KT 19/00 A3013 RMK A01 T01880004  RH  029%=      5-min Rain = 0
KSB1 131949Z 28010KT 19/00 A3012 RMK A01 T01900001  RH  028%=      5-min Rain = 0
KSB1 131950Z 26013KT 19/00 A3012 RMK A01 T01900004  RH  029%=      5-min Rain = 0
KSB1 131951Z 27013KT 19/00 A3012 RMK A01 T01910001  RH  028%=      5-min Rain = 0
KSB1 131952Z 26014KT 19/M00 A3012 RMK A01 T01901001  RH  028%=      5-min Rain = 0
KSB1 131953Z 27013KT 19/00 A3012 RMK A01 T018900-0  RH  028%=      5-min Rain = 0
KSB1 131954Z 27012KT 19/M00 A3012 RMK A01 T01881001  RH  028%=      5-min Rain = 0
KSB1 131955Z 27012KT 19/00 A3012 RMK A01 T01890002  RH  029%=      5-min Rain = 0
KSB1 131956Z 26011KT 19/01 A3012 RMK A01 T01920006  RH  029%=      5-min Rain = 0
KSB1 131957Z 27010KT 19/01 A3012 RMK A01 T01940005  RH  028%=      5-min Rain = 0
KSB1 131958Z 27010KT 20/01 A3012 RMK A01 T01950005  RH  028%=      5-min Rain = 0
KSB1 131959Z 27013KT 20/00 A3012 RMK A01 T01950003  RH  028%=      5-min Rain = 0
KSB1 132000Z 26010KT 19/00 A3012 RMK A01 T01930003  RH  028%=      5-min Rain = 0
KSB1 132001Z 26014KT 19/01 A3012 RMK A01 T01940005  RH  028%=      5-min Rain = 0
KSB1 132002Z 26013KT 19/00 A3012 RMK A01 T01930003  RH  028%=      5-min Rain = 0
KSB1 132003Z 25014KT 19/00 A3012 RMK A01 T01920004  RH  028%=      5-min Rain = 0
KSB1 132004Z 26013KT 19/01 A3012 RMK A01 T01910005  RH  029%=      5-min Rain = 0
KSB1 132005Z 27013KT 19/01 A3012 RMK A01 T01920005  RH  029%=      5-min Rain = 0
KSB1 132006Z 27012KT 19/00 A3012 RMK A01 T01930004  RH  028%=      5-min Rain = 0
KSB1 132007Z 27013KT 19/00 A3012 RMK A01 T01910004  RH  028%=      5-min Rain = 0
KSB1 132008Z 27013KT 19/01 A3012 RMK A01 T01910005  RH  029%=      5-min Rain = 0
KSB1 132009Z 27014KT 19/00 A3012 RMK A01 T01900004  RH  028%=      5-min Rain = 0
KSB1 132010Z 26015KT 19/00 A3011 RMK A01 T01890004  RH  029%=      5-min Rain = 0
KSB1 132011Z 25012KT 19/00 A3011 RMK A01 T01870004  RH  029%=      5-min Rain = 0
KSB1 132012Z 26014KT 19/00 A3011 RMK A01 T01860003  RH  029%=      5-min Rain = 0
KSB1 132013Z 26014KT 19/00 A3011 RMK A01 T01860003  RH  029%=      5-min Rain = 0
KSB1 132014Z 25015KT 19/00 A3011 RMK A01 T01860004  RH  029%=      5-min Rain = 0
KSB1 132015Z 27012KT 19/01 A3011 RMK A01 T01850005  RH  030%=      5-min Rain = 0
KSB1 132016Z 27015KT 19/01 A3011 RMK A01 T01850005  RH  030%=      5-min Rain = 0
KSB1 132017Z 27011KT 18/00 A3011 RMK A01 T01840004  RH  030%=      5-min Rain = 0
KSB1 132018Z 28012KT 18/01 A3011 RMK A01 T01830005  RH  030%=      5-min Rain = 0
KSB1 132019Z 27013KT 18/00 A3011 RMK A01 T01830004  RH  030%=      5-min Rain = 0
KSB1 132020Z 26013KT 18/00 A3011 RMK A01 T01820004  RH  030%=      5-min Rain = 0
KSB1 132021Z 26011KT 18/00 A3011 RMK A01 T01820004  RH  030%=      5-min Rain = 0
KSB1 132022Z 27010KT 18/01 A3011 RMK A01 T01820006  RH  031%=      5-min Rain = 0
KSB1 132023Z 25015G20KT 18/01 A3011 RMK A01 T01810007  RH  031%=      5-min Rain = 0
KSB1 132024Z 26015KT 18/00 A3011 RMK A01 T01820004  RH  030%=      5-min Rain = 0
KSB1 132025Z 27013KT 18/00 A3011 RMK A01 T01800004  RH  030%=      5-min Rain = 0
KSB1 132026Z 27010KT 18/01 A3012 RMK A01 T01800006  RH  031%=      5-min Rain = 0
KSB1 132027Z 27008KT 18/01 A3011 RMK A01 T01810009  RH  031%=      5-min Rain = 0
KSB1 132028Z 26013KT 18/01 A3011 RMK A01 T01840011  RH  031%=      5-min Rain = 0
KSB1 132029Z 27013KT 18/01 A3011 RMK A01 T01830007  RH  031%=      5-min Rain = 0
KSB1 132030Z 27014KT 18/01 A3011 RMK A01 T01810008  RH  031%=      5-min Rain = 0
KSB1 132031Z 27014KT 18/01 A3011 RMK A01 T01820008  RH  031%=      5-min Rain = 0
KSB1 132032Z 27013KT 18/01 A3011 RMK A01 T01830009  RH  031%=      5-min Rain = 0
KSB1 132033Z 26012KT 18/01 A3011 RMK A01 T01830007  RH  031%=      5-min Rain = 0
KSB1 132034Z 26013KT 18/01 A3011 RMK A01 T01800007  RH  031%=      5-min Rain = 0
KSB1 132035Z 26011KT 18/01 A3011 RMK A01 T01800009  RH  032%=      5-min Rain = 0
KSB1 132036Z 27012KT 18/01 A3011 RMK A01 T01810011  RH  032%=      5-min Rain = 0
KSB1 132037Z 27013KT 18/01 A3011 RMK A01 T01820010  RH  031%=      5-min Rain = 0
KSB1 132038Z 27011KT 18/01 A3011 RMK A01 T01830009  RH  031%=      5-min Rain = 0
KSB1 132039Z 25012KT 18/01 A3011 RMK A01 T01820009  RH  031%=      5-min Rain = 0
KSB1 132040Z 27011KT 18/01 A3011 RMK A01 T01810007  RH  031%=      5-min Rain = 0
KSB1 132041Z 27011KT 18/01 A3011 RMK A01 T01800009  RH  032%=      5-min Rain = 0
KSB1 132042Z 27011KT 18/01 A3011 RMK A01 T01800010  RH  032%=      5-min Rain = 0
KSB1 132043Z 27010KT 18/01 A3011 RMK A01 T01800009  RH  032%=      5-min Rain = 0
KSB1 132044Z 27012KT 18/01 A3011 RMK A01 T01800011  RH  032%=      5-min Rain = 0
KSB1 132045Z 26012KT 18/01 A3011 RMK A01 T01800011  RH  032%=      5-min Rain = 0
KSB1 132046Z 25010KT 18/01 A3011 RMK A01 T01810009  RH  032%=      5-min Rain = 0
KSB1 132047Z 25011KT 18/01 A3011 RMK A01 T01820010  RH  031%=      5-min Rain = 0
KSB1 132048Z 27011KT 18/01 A3011 RMK A01 T01840014  RH  032%=      5-min Rain = 0
KSB1 132049Z 27010KT 18/01 A3011 RMK A01 T01830013  RH  032%=      5-min Rain = 0
KSB1 132050Z 25009KT 18/01 A3011 RMK A01 T01830011  RH  031%=      5-min Rain = 0
KSB1 132051Z 26007KT 18/01 A3011 RMK A01 T01820010  RH  031%=      5-min Rain = 0
KSB1 132052Z 27007KT 18/01 A3011 RMK A01 T01810012  RH  032%=      5-min Rain = 0
KSB1 132053Z 26009KT 18/01 A3011 RMK A01 T01820014  RH  032%=      5-min Rain = 0
KSB1 132054Z 27009KT 18/01 A3011 RMK A01 T01830012  RH  032%=      5-min Rain = 0
KSB1 132055Z 27010KT 18/01 A3011 RMK A01 T01820013  RH  032%=      5-min Rain = 0
KSB1 132056Z 26007KT 18/01 A301 RMK A01 T01820013  RH  032%=      5-min Rain = 0
KSB1 132057Z 24010KT 18/01 A301 RMK A01 T01820014  RH  032%=      5-min Rain = 0
KSB1 132058Z 24009KT 18/01 A301 RMK A01 T01820009  RH  031%=      5-min Rain = 0
KSB1 132059Z 25010KT 18/01 A301 RMK A01 T01830010  RH  031%=      5-min Rain = 0
KSB1 132100Z 26009KT 18/01 A3011 RMK A01 T01830012  RH  032%=      5-min Rain = 0
KSB1 132101Z 25009KT 18/01 A3011 RMK A01 T01810012  RH  032%=      5-min Rain = 0
KSB1 132102Z 27007KT 18/02 A3011 RMK A01 T01790015  RH  033%=      5-min Rain = 0
KSB1 132103Z 26008KT 18/02 A3011 RMK A01 T01800016  RH  033%=      5-min Rain = 0
KSB1 132104Z 27008KT 18/02 A3011 RMK A01 T01810015  RH  033%=      5-min Rain = 0
KSB1 132105Z 26007KT 18/02 A3011 RMK A01 T01810017  RH  033%=      5-min Rain = 0
KSB1 132106Z 27006KT 18/02 A3011 RMK A01 T01790016  RH  033%=      5-min Rain = 0
KSB1 132107Z 28008KT 18/02 A3011 RMK A01 T01790016  RH  033%=      5-min Rain = 0
KSB1 132108Z 29008KT 18/01 A3011 RMK A01 T01790013  RH  033%=      5-min Rain = 0
KSB1 132109Z 30009KT 18/02 A3011 RMK A01 T01780016  RH  034%=      5-min Rain = 0
KSB1 132110Z 31009KT 18/02 A3011 RMK A01 T01790016  RH  034%=      5-min Rain = 0
KSB1 132111Z 29009KT 18/02 A3011 RMK A01 T01780017  RH  034%=      5-min Rain = 0
KSB1 132112Z 28008KT 18/02 A3011 RMK A01 T01790018  RH  034%=      5-min Rain = 0
KSB1 132113Z 28006KT 18/02 A3011 RMK A01 T01800020  RH  034%=      5-min Rain = 0
KSB1 132114Z 30007KT 18/02 A3011 RMK A01 T01820021  RH  034%=      5-min Rain = 0
KSB1 132115Z 30009KT 18/02 A3011 RMK A01 T01830020  RH  034%=      5-min Rain = 0
KSB1 132116Z 30008KT 18/02 A3011 RMK A01 T01820019  RH  033%=      5-min Rain = 0
KSB1 132117Z 29008KT 18/02 A3011 RMK A01 T01820020  RH  034%=      5-min Rain = 0
KSB1 132118Z 30008KT 18/02 A3011 RMK A01 T01820018  RH  033%=      5-min Rain = 0
KSB1 132119Z 30008KT 18/02 A3011 RMK A01 T01800017  RH  034%=      5-min Rain = 0
KSB1 132120Z 30008KT 18/02 A3011 RMK A01 T01780017  RH  034%=      5-min Rain = 0
KSB1 132121Z 31006KT 18/02 A3011 RMK A01 T01790019  RH  034%=      5-min Rain = 0
KSB1 132122Z 29007KT 18/02 A3011 RMK A01 T01800019  RH  034%=      5-min Rain = 0
KSB1 132123Z 28006KT 18/02 A3011 RMK A01 T01800020  RH  034%=      5-min Rain = 0
KSB1 132124Z 31006KT 18/02 A3011 RMK A01 T01800020  RH  034%=      5-min Rain = 0
KSB1 132125Z 28007KT 18/02 A3011 RMK A01 T01800020  RH  034%=      5-min Rain = 0
KSB1 132126Z 29009KT 18/02 A3011 RMK A01 T01800020  RH  034%=      5-min Rain = 0
KSB1 132127Z 32005KT 18/02 A3012 RMK A01 T01800019  RH  034%=      5-min Rain = 0
KSB1 132128Z 33004KT 18/02 A3012 RMK A01 T01790018  RH  034%=      5-min Rain = 0
KSB1 132129Z 33005KT 18/02 A3012 RMK A01 T01790023  RH  035%=      5-min Rain = 0
KSB1 132130Z 32006KT 18/02 A3012 RMK A01 T01800022  RH  035%=      5-min Rain = 0
KSB1 132131Z 32006KT 18/02 A3012 RMK A01 T01810023  RH  035%=      5-min Rain = 0
KSB1 132132Z 30006KT 18/02 A3012 RMK A01 T01810023  RH  035%=      5-min Rain = 0
KSB1 132133Z 29005KT 18/02 A3012 RMK A01 T01820023  RH  034%=      5-min Rain = 0
KSB1 132134Z 30003KT 18/02 A3012 RMK A01 T01830023  RH  034%=      5-min Rain = 0
KSB1 132135Z 32004KT 18/02 A3012 RMK A01 T01840021  RH  034%=      5-min Rain = 0
KSB1 132136Z 28006KT 18/02 A3011 RMK A01 T01840023  RH  034%=      5-min Rain = 0
KSB1 132137Z 29005KT 18/02 A3011 RMK A01 T01830017  RH  033%=      5-min Rain = 0
KSB1 132138Z 30003KT 18/02 A3011 RMK A01 T01800017  RH  033%=      5-min Rain = 0
KSB1 132139Z 28004KT 18/02 A3011 RMK A01 T01800020  RH  034%=      5-min Rain = 0
KSB1 132140Z 29004KT 18/02 A3011 RMK A01 T01810020  RH  034%=      5-min Rain = 0
KSB1 132141Z 27003KT 18/02 A3011 RMK A01 T01810018  RH  034%=      5-min Rain = 0
KSB1 132142Z 32004KT 18/02 A3011 RMK A01 T01810020  RH  034%=      5-min Rain = 0
KSB1 132143Z 33003KT 18/02 A3011 RMK A01 T01820018  RH  033%=      5-min Rain = 0
KSB1 132144Z 34005KT 18/02 A3011 RMK A01 T01810019  RH  034%=      5-min Rain = 0
KSB1 132145Z 33004KT 18/02 A3011 RMK A01 T01800020  RH  034%=      5-min Rain = 0
KSB1 132146Z 33007KT 18/02 A3011 RMK A01 T01790022  RH  035%=      5-min Rain = 0
KSB1 132147Z 32006KT 18/02 A3011 RMK A01 T01800021  RH  035%=      5-min Rain = 0
KSB1 132148Z 33006KT 18/02 A3011 RMK A01 T01790022  RH  035%=      5-min Rain = 0
KSB1 132149Z 33005KT 18/02 A3011 RMK A01 T01800022  RH  035%=      5-min Rain = 0
KSB1 132150Z 33007KT 18/02 A3011 RMK A01 T01810022  RH  034%=      5-min Rain = 0
KSB1 132151Z 33006KT 18/02 A3011 RMK A01 T01810021  RH  034%=      5-min Rain = 0
KSB1 132152Z 33006KT 18/02 A3011 RMK A01 T01810021  RH  034%=      5-min Rain = 0
KSB1 132153Z 34007KT 18/02 A3011 RMK A01 T01800021  RH  035%=      5-min Rain = 0
KSB1 132154Z 34005KT 18/02 A3011 RMK A01 T01790022  RH  035%=      5-min Rain = 0
KSB1 132155Z 34006KT 18/02 A3011 RMK A01 T01800023  RH  035%=      5-min Rain = 0
KSB1 132156Z 34007KT 18/02 A3011 RMK A01 T01800022  RH  035%=      5-min Rain = 0
KSB1 132157Z 34007KT 18/02 A3011 RMK A01 T01800021  RH  035%=      5-min Rain = 0
KSB1 132158Z 34006KT 18/02 A301 RMK A01 T01790021  RH  035%=      5-min Rain = 0
KSB1 132159Z 33005KT 18/02 A301 RMK A01 T01790020  RH  034%=      5-min Rain = 0
KSB1 132200Z 33006KT 18/02 A301 RMK A01 T01780020  RH  035%=      5-min Rain = 0
KSB1 132201Z 33006KT 18/02 A301 RMK A01 T01780021  RH  035%=      5-min Rain = 0
KSB1 132202Z 34006KT 18/02 A3011 RMK A01 T01780021  RH  035%=      5-min Rain = 0
KSB1 132203Z 34006KT 18/02 A3011 RMK A01 T01780023  RH  035%=      5-min Rain = 0
KSB1 132204Z 34005KT 18/02 A3011 RMK A01 T01790022  RH  035%=      5-min Rain = 0
KSB1 132205Z 30006KT 18/02 A3011 RMK A01 T01790020  RH  035%=      5-min Rain = 0
KSB1 132206Z 33003KT 18/02 A301 RMK A01 T01790021  RH  035%=      5-min Rain = 0
KSB1 132207Z 33007KT 18/02 A301 RMK A01 T01800022  RH  035%=      5-min Rain = 0
KSB1 132208Z 33006KT 18/02 A301 RMK A01 T01800019  RH  034%=      5-min Rain = 0
KSB1 132209Z 32005KT 18/02 A301 RMK A01 T01790019  RH  034%=      5-min Rain = 0
KSB1 132210Z 33004KT 18/02 A301 RMK A01 T01780020  RH  035%=      5-min Rain = 0
KSB1 132211Z 29006KT 18/02 A3011 RMK A01 T01790020  RH  034%=      5-min Rain = 0
KSB1 132212Z 28007KT 18/02 A3011 RMK A01 T01800017  RH  034%=      5-min Rain = 0
KSB1 132213Z 28007KT 18/02 A3011 RMK A01 T01810016  RH  033%=      5-min Rain = 0
KSB1 132214Z 31007KT 18/02 A3011 RMK A01 T01810019  RH  034%=      5-min Rain = 0
KSB1 132215Z 31005KT 18/02 A3011 RMK A01 T01810020  RH  034%=      5-min Rain = 0
KSB1 132216Z 33005KT 18/02 A3011 RMK A01 T01820023  RH  035%=      5-min Rain = 0
KSB1 132217Z 34006KT 18/03 A3011 RMK A01 T01810025  RH  035%=      5-min Rain = 0
KSB1 132218Z 33006KT 18/02 A3011 RMK A01 T01800024  RH  035%=      5-min Rain = 0
KSB1 132219Z 34005KT 18/02 A3011 RMK A01 T01790023  RH  035%=      5-min Rain = 0
KSB1 132220Z 30005KT 18/02 A3011 RMK A01 T01800024  RH  035%=      5-min Rain = 0
KSB1 132221Z 31004KT 18/02 A3011 RMK A01 T01800021  RH  034%=      5-min Rain = 0
KSB1 132222Z 33007KT 18/02 A3011 RMK A01 T01800023  RH  035%=      5-min Rain = 0
KSB1 132223Z 33009KT 18/03 A3011 RMK A01 T01800025  RH  035%=      5-min Rain = 0
KSB1 132224Z 31007KT 18/02 A3011 RMK A01 T01790021  RH  035%=      5-min Rain = 0
KSB1 132225Z 33006KT 18/02 A3011 RMK A01 T01780022  RH  035%=      5-min Rain = 0
KSB1 132226Z 34005KT 18/02 A3011 RMK A01 T01780022  RH  035%=      5-min Rain = 0
KSB1 132227Z 33005KT 18/02 A3011 RMK A01 T01780023  RH  035%=      5-min Rain = 0
KSB1 132228Z 32004KT 18/02 A3011 RMK A01 T01780024  RH  036%=      5-min Rain = 0
KSB1 132229Z 32005KT 18/02 A3011 RMK A01 T01780024  RH  036%=      5-min Rain = 0
KSB1 132230Z 33006KT 18/02 A3011 RMK A01 T01790024  RH  035%=      5-min Rain = 0
KSB1 132231Z 32007KT 18/02 A3011 RMK A01 T01790024  RH  035%=      5-min Rain = 0
KSB1 132232Z 32006KT 18/02 A3011 RMK A01 T01790023  RH  035%=      5-min Rain = 0
KSB1 132233Z 32006KT 18/02 A3011 RMK A01 T01800023  RH  035%=      5-min Rain = 0
KSB1 132234Z 31006KT 18/02 A3011 RMK A01 T01790022  RH  035%=      5-min Rain = 0
KSB1 132235Z 29007KT 18/03 A3011 RMK A01 T01800025  RH  036%=      5-min Rain = 0
KSB1 132236Z 29006KT 18/02 A3011 RMK A01 T01810022  RH  035%=      5-min Rain = 0
KSB1 132237Z 30006KT 18/02 A3011 RMK A01 T01800021  RH  034%=      5-min Rain = 0
KSB1 132238Z 27006KT 18/02 A3011 RMK A01 T01800019  RH  034%=      5-min Rain = 0
KSB1 132239Z 28006KT 18/02 A3011 RMK A01 T01790020  RH  034%=      5-min Rain = 0
KSB1 132240Z 29009KT 18/02 A3011 RMK A01 T01800021  RH  034%=      5-min Rain = 0
KSB1 132241Z 29008KT 18/02 A3011 RMK A01 T01810021  RH  034%=      5-min Rain = 0
KSB1 132242Z 28006KT 18/02 A3011 RMK A01 T01810021  RH  034%=      5-min Rain = 0
KSB1 132243Z 28007KT 18/02 A3011 RMK A01 T01810021  RH  034%=      5-min Rain = 0
KSB1 132244Z 29007KT 18/02 A3011 RMK A01 T01820022  RH  034%=      5-min Rain = 0
KSB1 132245Z 27006KT 18/02 A3011 RMK A01 T01820021  RH  034%=      5-min Rain = 0
KSB1 132246Z 27005KT 18/02 A3011 RMK A01 T01810021  RH  034%=      5-min Rain = 0
KSB1 132247Z 26009KT 18/02 A3011 RMK A01 T01820020  RH  034%=      5-min Rain = 0
KSB1 132248Z 27008KT 18/02 A3011 RMK A01 T01820021  RH  034%=      5-min Rain = 0
KSB1 132249Z 27006KT 18/02 A301 RMK A01 T01810020  RH  034%=      5-min Rain = 0
KSB1 132250Z 26009KT 18/02 A301 RMK A01 T01800019  RH  034%=      5-min Rain = 0
KSB1 132251Z 26009KT 18/02 A301 RMK A01 T01790019  RH  034%=      5-min Rain = 0
KSB1 132252Z 26008KT 18/02 A301 RMK A01 T01790019  RH  034%=      5-min Rain = 0
KSB1 132253Z 27008KT 18/02 A301 RMK A01 T01780018  RH  034%=      5-min Rain = 0
KSB1 132254Z 27008KT 18/02 A301 RMK A01 T01780017  RH  034%=      5-min Rain = 0
KSB1 132255Z 27005KT 18/02 A301 RMK A01 T01780019  RH  034%=      5-min Rain = 0
KSB1 132256Z 28004KT 18/02 A301 RMK A01 T01770020  RH  035%=      5-min Rain = 0
KSB1 132257Z 28005KT 18/02 A301 RMK A01 T01780021  RH  035%=      5-min Rain = 0
KSB1 132258Z 28005KT 18/02 A301 RMK A01 T01780020  RH  034%=      5-min Rain = 0
KSB1 132259Z 27005KT 18/02 A301 RMK A01 T01790021  RH  035%=      5-min Rain = 0
KSB1 132300Z 26008KT 18/02 A301 RMK A01 T01790020  RH  035%=      5-min Rain = 0
KSB1 132301Z 27008KT 18/02 A301 RMK A01 T01790020  RH  034%=      5-min Rain = 0
KSB1 132302Z 27008KT 18/02 A301 RMK A01 T01790021  RH  035%=      5-min Rain = 0
KSB1 132303Z 26007KT 18/02 A301 RMK A01 T01790021  RH  035%=      5-min Rain = 0
KSB1 132304Z 26007KT 18/02 A301 RMK A01 T01800021  RH  034%=      5-min Rain = 0
KSB1 132305Z 26007KT 18/02 A301 RMK A01 T01800020  RH  034%=      5-min Rain = 0
KSB1 132306Z 26007KT 18/02 A301 RMK A01 T01790021  RH  035%=      5-min Rain = 0
KSB1 132307Z 27009KT 18/02 A301 RMK A01 T01790021  RH  035%=      5-min Rain = 0
KSB1 132308Z 26008KT 18/02 A301 RMK A01 T01770019  RH  035%=      5-min Rain = 0
KSB1 132309Z 26007KT 18/02 A301 RMK A01 T01770022  RH  035%=      5-min Rain = 0
KSB1 132310Z 27007KT 18/02 A301 RMK A01 T01760020  RH  035%=      5-min Rain = 0
KSB1 132311Z 27008KT 18/02 A301 RMK A01 T01770019  RH  035%=      5-min Rain = 0
KSB1 132312Z 27007KT 18/02 A301 RMK A01 T01770019  RH  035%=      5-min Rain = 0
KSB1 132313Z 25007KT 18/02 A301 RMK A01 T01760020  RH  035%=      5-min Rain = 0
KSB1 132314Z 26006KT 18/02 A301 RMK A01 T01760019  RH  035%=      5-min Rain = 0
KSB1 132315Z 25006KT 18/02 A301 RMK A01 T01760020  RH  035%=      5-min Rain = 0
KSB1 132316Z 26007KT 18/02 A301 RMK A01 T01770021  RH  035%=      5-min Rain = 0
KSB1 132317Z 26007KT 18/02 A301 RMK A01 T01760021  RH  035%=      5-min Rain = 0
KSB1 132318Z 25006KT 18/02 A301 RMK A01 T01760022  RH  035%=      5-min Rain = 0
KSB1 132319Z 25008KT 18/02 A301 RMK A01 T01760022  RH  035%=      5-min Rain = 0
KSB1 132320Z 26008KT 18/02 A301 RMK A01 T01760020  RH  035%=      5-min Rain = 0
KSB1 132321Z 26007KT 18/02 A301 RMK A01 T01750021  RH  036%=      5-min Rain = 0
KSB1 132322Z 26006KT 18/02 A301 RMK A01 T01750021  RH  036%=      5-min Rain = 0
KSB1 132323Z 25005KT 17/02 A301 RMK A01 T01740021  RH  036%=      5-min Rain = 0
KSB1 132324Z 25005KT 17/02 A301 RMK A01 T01740022  RH  036%=      5-min Rain = 0
KSB1 132325Z 25005KT 17/02 A301 RMK A01 T01740022  RH  036%=      5-min Rain = 0
KSB1 132326Z 26005KT 17/02 A301 RMK A01 T01740023  RH  036%=      5-min Rain = 0
KSB1 132327Z 26005KT 17/02 A301 RMK A01 T01740023  RH  036%=      5-min Rain = 0
KSB1 132328Z 26006KT 17/02 A301 RMK A01 T01740023  RH  036%=      5-min Rain = 0
KSB1 132329Z 26005KT 17/02 A301 RMK A01 T01740023  RH  036%=      5-min Rain = 0
KSB1 132330Z 25005KT 17/02 A301 RMK A01 T01730023  RH  036%=      5-min Rain = 0
KSB1 132331Z 25005KT 17/02 A301 RMK A01 T01730024  RH  037%=      5-min Rain = 0
KSB1 132332Z 25005KT 17/02 A301 RMK A01 T01730024  RH  037%=      5-min Rain = 0
KSB1 132333Z 26005KT 17/03 A301 RMK A01 T01720025  RH  037%=      5-min Rain = 0
KSB1 132334Z 26005KT 17/03 A301 RMK A01 T01720026  RH  037%=      5-min Rain = 0
KSB1 132335Z 27005KT 17/03 A301 RMK A01 T01720025  RH  037%=      5-min Rain = 0
KSB1 132336Z 27005KT 17/03 A301 RMK A01 T01720025  RH  037%=      5-min Rain = 0
KSB1 132337Z 28005KT 17/03 A301 RMK A01 T01710025  RH  038%=      5-min Rain = 0
KSB1 132338Z 29004KT 17/03 A301 RMK A01 T01710026  RH  038%=      5-min Rain = 0
KSB1 132339Z 28004KT 17/03 A301 RMK A01 T01700026  RH  038%=      5-min Rain = 0
KSB1 132340Z 28006KT 17/03 A301 RMK A01 T01700026  RH  038%=      5-min Rain = 0
KSB1 132341Z 29005KT 17/03 A301 RMK A01 T01700026  RH  038%=      5-min Rain = 0
KSB1 132342Z 28005KT 17/03 A301 RMK A01 T01690027  RH  038%=      5-min Rain = 0
KSB1 132343Z 30004KT 17/03 A301 RMK A01 T01690027  RH  038%=      5-min Rain = 0
KSB1 132344Z 30005KT 17/03 A301 RMK A01 T01680026  RH  039%=      5-min Rain = 0
KSB1 132345Z 29004KT 17/03 A301 RMK A01 T01680025  RH  038%=      5-min Rain = 0
KSB1 132346Z 28005KT 17/03 A301 RMK A01 T01680027  RH  039%=      5-min Rain = 0
KSB1 132347Z 29005KT 17/03 A301 RMK A01 T01670027  RH  039%=      5-min Rain = 0
KSB1 132348Z 30005KT 17/03 A301 RMK A01 T01660027  RH  039%=      5-min Rain = 0
KSB1 132349Z 30005KT 17/03 A301 RMK A01 T01660027  RH  039%=      5-min Rain = 0
KSB1 132350Z 29005KT 17/03 A301 RMK A01 T01650025  RH  039%=      5-min Rain = 0
KSB1 132351Z 29005KT 16/03 A301 RMK A01 T01640025  RH  039%=      5-min Rain = 0
KSB1 132352Z 29005KT 16/03 A301 RMK A01 T01640025  RH  039%=      5-min Rain = 0
KSB1 132353Z 29006KT 16/02 A301 RMK A01 T01630019  RH  038%=      5-min Rain = 0
KSB1 132354Z 29005KT 16/02 A301 RMK A01 T01630016  RH  037%=      5-min Rain = 0
KSB1 132355Z 30004KT 16/02 A301 RMK A01 T01630019  RH  038%=      5-min Rain = 0
KSB1 132356Z 30003KT 16/02 A301 RMK A01 T01620021  RH  039%=      5-min Rain = 0
KSB1 132357Z 30003KT 16/02 A301 RMK A01 T01610022  RH  039%=      5-min Rain = 0
KSB1 132358Z 31004KT 16/02 A301 RMK A01 T01600022  RH  039%=      5-min Rain = 0
KSB1 132359Z 32004KT 16/02 A301 RMK A01 T01600020  RH  039%=      5-min Rain = 0
KSB1 140000Z 31005KT 16/02 A301 RMK A01 T01580018  RH  039%=      5-min Rain = 0
KSB1 140001Z 31005KT 16/02 A301 RMK A01 T01570016  RH  038%=      5-min Rain = 0
KSB1 140002Z 32006KT 16/02 A301 RMK A01 T01570015  RH  038%=      5-min Rain = 0
KSB1 140003Z 31006KT 16/01 A301 RMK A01 T01550014  RH  038%=      5-min Rain = 0
KSB1 140004Z 30007KT 16/01 A301 RMK A01 T01550012  RH  038%=      5-min Rain = 0
KSB1 140005Z 30006KT 15/01 A301 RMK A01 T01540012  RH  038%=      5-min Rain = 0
KSB1 140006Z 30007KT 15/01 A301 RMK A01 T01530012  RH  038%=      5-min Rain = 0
KSB1 140007Z 31007KT 15/01 A301 RMK A01 T01530010  RH  038%=      5-min Rain = 0
KSB1 140008Z 31008KT 15/01 A301 RMK A01 T01530009  RH  038%=      5-min Rain = 0
KSB1 140009Z 31007KT 15/01 A301 RMK A01 T01540009  RH  037%=      5-min Rain = 0
KSB1 140010Z 31007KT 15/01 A301 RMK A01 T01540012  RH  038%=      5-min Rain = 0
KSB1 140011Z 30006KT 15/01 A301 RMK A01 T01540011  RH  038%=      5-min Rain = 0
KSB1 140012Z 30007KT 15/01 A301 RMK A01 T01530012  RH  038%=      5-min Rain = 0
KSB1 140013Z 31007KT 15/01 A301 RMK A01 T01530012  RH  038%=      5-min Rain = 0
KSB1 140014Z 30007KT 15/01 A301 RMK A01 T01530012  RH  038%=      5-min Rain = 0
KSB1 140015Z 30007KT 15/01 A301 RMK A01 T01530012  RH  038%=      5-min Rain = 0
KSB1 140016Z 30007KT 15/01 A301 RMK A01 T01530013  RH  039%=      5-min Rain = 0
KSB1 140017Z 30008KT 15/01 A301 RMK A01 T01520013  RH  039%=      5-min Rain = 0
KSB1 140018Z 29008KT 15/01 A301 RMK A01 T01520013  RH  039%=      5-min Rain = 0
KSB1 140019Z 30007KT 15/01 A301 RMK A01 T01520013  RH  039%=      5-min Rain = 0
KSB1 140020Z 29007KT 15/01 A301 RMK A01 T01520013  RH  039%=      5-min Rain = 0
KSB1 140021Z 29006KT 15/02 A301 RMK A01 T01520015  RH  039%=      5-min Rain = 0
KSB1 140022Z 29006KT 15/02 A301 RMK A01 T01500015  RH  040%=      5-min Rain = 0
KSB1 140023Z 28005KT 15/02 A301 RMK A01 T01490016  RH  040%=      5-min Rain = 0
KSB1 140024Z 29006KT 15/02 A301 RMK A01 T01470017  RH  041%=      5-min Rain = 0
KSB1 140025Z 29006KT 15/02 A301 RMK A01 T01450017  RH  042%=      5-min Rain = 0
KSB1 140026Z 29006KT 14/02 A301 RMK A01 T01440017  RH  042%=      5-min Rain = 0
KSB1 140027Z 29005KT 14/02 A301 RMK A01 T01440016  RH  042%=      5-min Rain = 0
KSB1 140028Z 30006KT 15/02 A301 RMK A01 T01450016  RH  042%=      5-min Rain = 0
KSB1 140029Z 30005KT 15/02 A301 RMK A01 T01450018  RH  042%=      5-min Rain = 0
KSB1 140030Z 29005KT 15/02 A301 RMK A01 T01450018  RH  042%=      5-min Rain = 0
KSB1 140031Z 30005KT 14/02 A301 RMK A01 T01440017  RH  042%=      5-min Rain = 0
KSB1 140032Z 30005KT 14/02 A301 RMK A01 T01440017  RH  042%=      5-min Rain = 0
KSB1 140033Z 30006KT 14/02 A301 RMK A01 T01440019  RH  043%=      5-min Rain = 0
KSB1 140034Z 30006KT 14/02 A301 RMK A01 T01430019  RH  043%=      5-min Rain = 0
KSB1 140035Z 30006KT 14/02 A301 RMK A01 T01430018  RH  043%=      5-min Rain = 0
KSB1 140036Z 30006KT 14/02 A301 RMK A01 T01440018  RH  043%=      5-min Rain = 0
KSB1 140037Z 30007KT 14/02 A301 RMK A01 T01440017  RH  042%=      5-min Rain = 0
KSB1 140038Z 30007KT 15/02 A301 RMK A01 T01450016  RH  042%=      5-min Rain = 0
KSB1 140039Z 29005KT 15/02 A3009 RMK A01 T01460017  RH  042%=      5-min Rain = 0
KSB1 140040Z 28005KT 15/02 A3009 RMK A01 T01460018  RH  042%=      5-min Rain = 0
KSB1 140041Z 29006KT 15/02 A3009 RMK A01 T01450018  RH  042%=      5-min Rain = 0
KSB1 140042Z 29005KT 15/02 A3009 RMK A01 T01450018  RH  042%=      5-min Rain = 0
KSB1 140043Z 29005KT 15/02 A3009 RMK A01 T01450018  RH  042%=      5-min Rain = 0
KSB1 140044Z 29005KT 14/02 A3009 RMK A01 T01440018  RH  042%=      5-min Rain = 0
KSB1 140045Z 29005KT 14/02 A3009 RMK A01 T01440019  RH  043%=      5-min Rain = 0
KSB1 140046Z 29006KT 14/02 A3009 RMK A01 T01430019  RH  043%=      5-min Rain = 0
KSB1 140047Z 28006KT 14/02 A3009 RMK A01 T01430018  RH  043%=      5-min Rain = 0
KSB1 140048Z 28006KT 14/02 A3009 RMK A01 T01420019  RH  043%=      5-min Rain = 0
KSB1 140049Z 29006KT 14/02 A3009 RMK A01 T01410020  RH  044%=      5-min Rain = 0
KSB1 140050Z 29005KT 14/02 A3009 RMK A01 T01390021  RH  045%=      5-min Rain = 0
KSB1 140051Z 29006KT 14/02 A3009 RMK A01 T01370021  RH  045%=      5-min Rain = 0
KSB1 140052Z 29006KT 14/02 A3009 RMK A01 T01370021  RH  045%=      5-min Rain = 0
KSB1 140053Z 29006KT 14/02 A3009 RMK A01 T01360020  RH  045%=      5-min Rain = 0
KSB1 140054Z 29006KT 14/02 A3009 RMK A01 T01370020  RH  045%=      5-min Rain = 0
KSB1 140055Z 29006KT 14/02 A3009 RMK A01 T01370020  RH  045%=      5-min Rain = 0
KSB1 140056Z 30006KT 14/02 A3009 RMK A01 T01370020  RH  045%=      5-min Rain = 0
KSB1 140057Z 30006KT 14/02 A3009 RMK A01 T01380020  RH  045%=      5-min Rain = 0
KSB1 140058Z 30006KT 14/02 A3009 RMK A01 T01380020  RH  045%=      5-min Rain = 0
KSB1 140059Z 30006KT 14/02 A3009 RMK A01 T01390020  RH  045%=      5-min Rain = 0
KSB1 140100Z 29006KT 14/02 A3009 RMK A01 T01390020  RH  044%=      5-min Rain = 0
KSB1 140101Z 30005KT 14/02 A3009 RMK A01 T01400020  RH  044%=      5-min Rain = 0
KSB1 140102Z 30005KT 14/02 A3009 RMK A01 T01400020  RH  044%=      5-min Rain = 0
KSB1 140103Z 30005KT 14/02 A3009 RMK A01 T01400019  RH  044%=      5-min Rain = 0
KSB1 140104Z 30005KT 14/02 A3009 RMK A01 T01410019  RH  044%=      5-min Rain = 0
KSB1 140105Z 30006KT 14/02 A3009 RMK A01 T01410019  RH  044%=      5-min Rain = 0
KSB1 140106Z 30006KT 14/02 A3009 RMK A01 T01410019  RH  044%=      5-min Rain = 0
KSB1 140107Z 29005KT 14/02 A3009 RMK A01 T01400018  RH  043%=      5-min Rain = 0
KSB1 140108Z 29005KT 14/02 A3009 RMK A01 T01410018  RH  043%=      5-min Rain = 0
KSB1 140109Z 30006KT 14/02 A3009 RMK A01 T01420018  RH  043%=      5-min Rain = 0
KSB1 140110Z 30006KT 14/02 A3009 RMK A01 T01420019  RH  043%=      5-min Rain = 0
KSB1 140111Z 30005KT 14/02 A3009 RMK A01 T01420019  RH  043%=      5-min Rain = 0
KSB1 140112Z 30005KT 14/02 A3009 RMK A01 T01420017  RH  043%=      5-min Rain = 0
KSB1 140113Z 30005KT 14/02 A3009 RMK A01 T01430017  RH  042%=      5-min Rain = 0
KSB1 140114Z 30005KT 14/02 A3009 RMK A01 T01430016  RH  042%=      5-min Rain = 0
KSB1 140115Z 30005KT 14/02 A3009 RMK A01 T01430016  RH  042%=      5-min Rain = 0
KSB1 140116Z 30004KT 14/02 A3009 RMK A01 T01430016  RH  042%=      5-min Rain = 0
KSB1 140117Z 30005KT 14/02 A3009 RMK A01 T01430015  RH  042%=      5-min Rain = 0
KSB1 140118Z 30005KT 14/01 A3009 RMK A01 T01440014  RH  041%=      5-min Rain = 0
KSB1 140119Z 30004KT 15/01 A3009 RMK A01 T01450013  RH  041%=      5-min Rain = 0
KSB1 140120Z 30004KT 15/01 A3009 RMK A01 T01460013  RH  041%=      5-min Rain = 0
KSB1 140121Z 30005KT 15/01 A3009 RMK A01 T01460014  RH  041%=      5-min Rain = 0
KSB1 140122Z 30005KT 15/02 A3009 RMK A01 T01450015  RH  041%=      5-min Rain = 0
KSB1 140123Z 30005KT 14/02 A3009 RMK A01 T01440015  RH  042%=      5-min Rain = 0
KSB1 140124Z 30005KT 14/02 A3009 RMK A01 T01430015  RH  042%=      5-min Rain = 0
KSB1 140125Z 29005KT 14/02 A3009 RMK A01 T01430015  RH  042%=      5-min Rain = 0
KSB1 140126Z 29005KT 14/02 A3009 RMK A01 T01420015  RH  042%=      5-min Rain = 0
KSB1 140127Z 28005KT 14/02 A3009 RMK A01 T01420016  RH  042%=      5-min Rain = 0
KSB1 140128Z 28005KT 14/02 A3009 RMK A01 T01420015  RH  042%=      5-min Rain = 0
KSB1 140129Z 28005KT 14/01 A3009 RMK A01 T01420014  RH  042%=      5-min Rain = 0
KSB1 140130Z 28005KT 14/01 A3009 RMK A01 T01420013  RH  041%=      5-min Rain = 0
KSB1 140131Z 28005KT 14/01 A3009 RMK A01 T01430014  RH  041%=      5-min Rain = 0
KSB1 140132Z 29006KT 14/01 A3009 RMK A01 T01430014  RH  042%=      5-min Rain = 0
KSB1 140133Z 29006KT 14/01 A3009 RMK A01 T01420014  RH  042%=      5-min Rain = 0
KSB1 140134Z 29006KT 14/02 A3009 RMK A01 T01420015  RH  042%=      5-min Rain = 0
KSB1 140135Z 29005KT 14/02 A3009 RMK A01 T01410016  RH  043%=      5-min Rain = 0
KSB1 140136Z 28005KT 14/02 A3009 RMK A01 T01410016  RH  043%=      5-min Rain = 0
KSB1 140137Z 28005KT 14/02 A3009 RMK A01 T01400016  RH  043%=      5-min Rain = 0
KSB1 140138Z 28005KT 14/02 A3008 RMK A01 T01400017  RH  043%=      5-min Rain = 0
KSB1 140139Z 28005KT 14/02 A3008 RMK A01 T01400015  RH  043%=      5-min Rain = 0
KSB1 140140Z 28004KT 14/02 A3008 RMK A01 T01400015  RH  043%=      5-min Rain = 0
KSB1 140141Z 28005KT 14/02 A3008 RMK A01 T01410015  RH  042%=      5-min Rain = 0
KSB1 140142Z 28005KT 14/01 A3008 RMK A01 T01410014  RH  042%=      5-min Rain = 0
KSB1 140143Z 28005KT 14/02 A3008 RMK A01 T01410015  RH  042%=      5-min Rain = 0
KSB1 140144Z 29005KT 14/01 A3008 RMK A01 T01410014  RH  042%=      5-min Rain = 0
KSB1 140145Z 28005KT 14/01 A3008 RMK A01 T01410013  RH  042%=      5-min Rain = 0
KSB1 140146Z 28004KT 14/01 A3008 RMK A01 T01410013  RH  042%=      5-min Rain = 0
KSB1 140147Z 28004KT 14/01 A3008 RMK A01 T01420013  RH  042%=      5-min Rain = 0
KSB1 140148Z 29005KT 14/01 A3008 RMK A01 T01420012  RH  041%=      5-min Rain = 0
KSB1 140149Z 29005KT 14/01 A3008 RMK A01 T01420012  RH  041%=      5-min Rain = 0
KSB1 140150Z 29005KT 14/01 A3008 RMK A01 T01420012  RH  041%=      5-min Rain = 0
KSB1 140151Z 29005KT 14/01 A3008 RMK A01 T01420011  RH  041%=      5-min Rain = 0
KSB1 140152Z 29005KT 14/01 A3008 RMK A01 T01430011  RH  041%=      5-min Rain = 0
KSB1 140153Z 29005KT 14/01 A3009 RMK A01 T01430010  RH  040%=      5-min Rain = 0
KSB1 140154Z 29004KT 14/01 A3009 RMK A01 T01440010  RH  040%=      5-min Rain = 0
KSB1 140155Z 29004KT 15/01 A3009 RMK A01 T01450009  RH  040%=      5-min Rain = 0
KSB1 140156Z 30004KT 15/01 A3009 RMK A01 T01450010  RH  040%=      5-min Rain = 0
KSB1 140157Z 29004KT 15/01 A3009 RMK A01 T01450009  RH  040%=      5-min Rain = 0
KSB1 140158Z 30004KT 15/01 A3009 RMK A01 T01450008  RH  039%=      5-min Rain = 0
KSB1 140159Z 31004KT 15/01 A3009 RMK A01 T01460008  RH  039%=      5-min Rain = 0
KSB1 140200Z 30004KT 15/01 A3009 RMK A01 T01470007  RH  039%=      5-min Rain = 0
KSB1 140201Z 31004KT 15/01 A3009 RMK A01 T01480007  RH  038%=      5-min Rain = 0
KSB1 140202Z 31005KT 15/01 A3009 RMK A01 T01480007  RH  038%=      5-min Rain = 0
KSB1 140203Z 31005KT 15/01 A3009 RMK A01 T01480008  RH  038%=      5-min Rain = 0
KSB1 140204Z 32005KT 15/01 A301 RMK A01 T01470008  RH  039%=      5-min Rain = 0
KSB1 140205Z 32005KT 15/01 A301 RMK A01 T01450010  RH  040%=      5-min Rain = 0
KSB1 140206Z 33006KT 14/01 A3009 RMK A01 T01410011  RH  041%=      5-min Rain = 0
KSB1 140207Z 33006KT 14/01 A3009 RMK A01 T01390013  RH  042%=      5-min Rain = 0
KSB1 140208Z 34006KT 14/01 A3009 RMK A01 T01390014  RH  042%=      5-min Rain = 0
KSB1 140209Z 34006KT 14/01 A3009 RMK A01 T01400014  RH  043%=      5-min Rain = 0
KSB1 140210Z 33006KT 14/02 A3009 RMK A01 T01390015  RH  043%=      5-min Rain = 0
KSB1 140211Z 33006KT 14/02 A3009 RMK A01 T01390016  RH  043%=      5-min Rain = 0
KSB1 140212Z 33006KT 14/02 A301 RMK A01 T01390016  RH  043%=      5-min Rain = 0
KSB1 140213Z 33006KT 14/02 A301 RMK A01 T01390018  RH  044%=      5-min Rain = 0
KSB1 140214Z 33007KT 14/02 A301 RMK A01 T01370018  RH  044%=      5-min Rain = 0
KSB1 140215Z 33006KT 14/02 A301 RMK A01 T01360018  RH  045%=      5-min Rain = 0
KSB1 140216Z 33005KT 14/02 A301 RMK A01 T01350018  RH  045%=      5-min Rain = 0
KSB1 140217Z 33005KT 14/02 A301 RMK A01 T01350018  RH  045%=      5-min Rain = 0
KSB1 140218Z 33006KT 14/02 A301 RMK A01 T01360018  RH  045%=      5-min Rain = 0
KSB1 140219Z 32006KT 14/02 A301 RMK A01 T01370018  RH  045%=      5-min Rain = 0
KSB1 140220Z 32006KT 14/02 A3009 RMK A01 T01370018  RH  044%=      5-min Rain = 0
KSB1 140221Z 33004KT 14/02 A3009 RMK A01 T01380018  RH  044%=      5-min Rain = 0
KSB1 140222Z 32003KT 14/02 A3009 RMK A01 T01380018  RH  044%=      5-min Rain = 0
KSB1 140223Z 31002KT 14/02 A3009 RMK A01 T01390018  RH  044%=      5-min Rain = 0
KSB1 140224Z 30002KT 14/02 A3009 RMK A01 T01390018  RH  044%=      5-min Rain = 0
KSB1 140225Z 30002KT 14/02 A3008 RMK A01 T01390018  RH  044%=      5-min Rain = 0
KSB1 140226Z 27002KT 14/02 A3008 RMK A01 T01390018  RH  044%=      5-min Rain = 0
KSB1 140227Z 26002KT 14/02 A3008 RMK A01 T01400016  RH  043%=      5-min Rain = 0
KSB1 140228Z 28002KT 14/01 A3009 RMK A01 T01410013  RH  042%=      5-min Rain = 0
KSB1 140229Z 29002KT 14/01 A3009 RMK A01 T01430011  RH  041%=      5-min Rain = 0
KSB1 140230Z 32002KT 14/02 A3009 RMK A01 T01430016  RH  042%=      5-min Rain = 0
KSB1 140231Z 31003KT 14/02 A3009 RMK A01 T01360017  RH  044%=      5-min Rain = 0
KSB1 140232Z 29003KT 13/02 A3009 RMK A01 T01330016  RH  045%=      5-min Rain = 0
KSB1 140233Z 28003KT 13/02 A3009 RMK A01 T01310017  RH  046%=      5-min Rain = 0
KSB1 140234Z 28003KT 13/02 A3009 RMK A01 T01270018  RH  047%=      5-min Rain = 0
KSB1 140235Z 28004KT 12/02 A3009 RMK A01 T01230019  RH  049%=      5-min Rain = 0
KSB1 140236Z 28003KT 12/02 A3009 RMK A01 T01200019  RH  050%=      5-min Rain = 0
KSB1 140237Z 28003KT 12/02 A3009 RMK A01 T01180018  RH  050%=      5-min Rain = 0
KSB1 140238Z 29003KT 12/02 A3009 RMK A01 T01180015  RH  049%=      5-min Rain = 0
KSB1 140239Z 29003KT 12/01 A3009 RMK A01 T01240011  RH  046%=      5-min Rain = 0
KSB1 140240Z 29002KT 13/01 A301 RMK A01 T01290013  RH  045%=      5-min Rain = 0
KSB1 140241Z 10001KT 13/02 A301 RMK A01 T01250020  RH  049%=      5-min Rain = 0
KSB1 140242Z 03001KT 11/02 A301 RMK A01 T01140019  RH  052%=      5-min Rain = 0
KSB1 140243Z 35000KT 11/02 A301 RMK A01 T01090015  RH  052%=      5-min Rain = 0
KSB1 140244Z 34001KT 11/02 A301 RMK A01 T01090015  RH  052%=      5-min Rain = 0
KSB1 140245Z 32001KT 11/02 A3009 RMK A01 T01110016  RH  052%=      5-min Rain = 0
KSB1 140246Z 03001KT 11/02 A3009 RMK A01 T01090019  RH  054%=      5-min Rain = 0
KSB1 140247Z 01001KT 10/02 A3009 RMK A01 T01010018  RH  056%=      5-min Rain = 0
KSB1 140248Z 05001KT 10/02 A3009 RMK A01 T00980019  RH  058%=      5-min Rain = 0
KSB1 140249Z 05002KT 10/02 A3009 RMK A01 T00970018  RH  058%=      5-min Rain = 0
KSB1 140250Z 06001KT 10/02 A3009 RMK A01 T00980019  RH  058%=      5-min Rain = 0
KSB1 140251Z 06000KT 10/02 A3009 RMK A01 T00970021  RH  059%=      5-min Rain = 0
KSB1 140252Z 00000KT 09/02 A3009 RMK A01 T00930020  RH  060%=      5-min Rain = 0
KSB1 140253Z 00000KT 09/02 A3009 RMK A01 T00880020  RH  063%=      5-min Rain = 0
KSB1 140254Z 02000KT 09/02 A3009 RMK A01 T00850021  RH  064%=      5-min Rain = 0
KSB1 140255Z 00000KT 08/02 A3009 RMK A01 T00840021  RH  064%=      5-min Rain = 0
KSB1 140256Z 00000KT 09/02 A3009 RMK A01 T00880022  RH  063%=      5-min Rain = 0
KSB1 140257Z 00000KT 09/02 A3009 RMK A01 T00900023  RH  063%=      5-min Rain = 0
KSB1 140258Z 00000KT 09/02 A3009 RMK A01 T00900023  RH  063%=      5-min Rain = 0
KSB1 140259Z 06001KT 09/02 A3009 RMK A01 T00870022  RH  064%=      5-min Rain = 0
KSB1 140300Z 05002KT 09/02 A3009 RMK A01 T00890020  RH  062%=      5-min Rain = 0
KSB1 140301Z 06003KT 10/02 A301 RMK A01 T00950019  RH  059%=      5-min Rain = 0
KSB1 140302Z 06003KT 10/02 A301 RMK A01 T01020019  RH  056%=      5-min Rain = 0
KSB1 140303Z 05003KT 11/02 A301 RMK A01 T01070019  RH  055%=      5-min Rain = 0
KSB1 140304Z 04003KT 11/02 A301 RMK A01 T01100020  RH  054%=      5-min Rain = 0
KSB1 140305Z 02003KT 11/02 A301 RMK A01 T01120020  RH  053%=      5-min Rain = 0
KSB1 140306Z 04003KT 11/02 A301 RMK A01 T01120021  RH  054%=      5-min Rain = 0
KSB1 140307Z 06003KT 11/02 A301 RMK A01 T01120020  RH  053%=      5-min Rain = 0
KSB1 140308Z 06003KT 11/02 A301 RMK A01 T01120020  RH  053%=      5-min Rain = 0
KSB1 140309Z 06003KT 11/02 A301 RMK A01 T01140020  RH  053%=      5-min Rain = 0
KSB1 140310Z 01004KT 11/02 A301 RMK A01 T01130021  RH  053%=      5-min Rain = 0
KSB1 140311Z 05003KT 11/02 A301 RMK A01 T01100023  RH  055%=      5-min Rain = 0
KSB1 140312Z 06002KT 11/02 A301 RMK A01 T01060022  RH  056%=      5-min Rain = 0
KSB1 140313Z 06002KT 11/02 A301 RMK A01 T01050022  RH  056%=      5-min Rain = 0
KSB1 140314Z 06002KT 11/02 A301 RMK A01 T01050021  RH  056%=      5-min Rain = 0
KSB1 140315Z 06002KT 11/02 A301 RMK A01 T01060021  RH  055%=      5-min Rain = 0
KSB1 140316Z 06002KT 11/02 A301 RMK A01 T01080020  RH  055%=      5-min Rain = 0
KSB1 140317Z 07002KT 11/02 A301 RMK A01 T01090020  RH  054%=      5-min Rain = 0
KSB1 140318Z 09002KT 11/02 A301 RMK A01 T01100020  RH  054%=      5-min Rain = 0
KSB1 140319Z 10002KT 11/02 A301 RMK A01 T01100020  RH  054%=      5-min Rain = 0
KSB1 140320Z 10002KT 11/02 A301 RMK A01 T01110020  RH  053%=      5-min Rain = 0
KSB1 140321Z 10002KT 11/02 A301 RMK A01 T01110020  RH  053%=      5-min Rain = 0
KSB1 140322Z 08001KT 11/02 A301 RMK A01 T01110020  RH  054%=      5-min Rain = 0
KSB1 140323Z 10001KT 11/02 A301 RMK A01 T01110021  RH  054%=      5-min Rain = 0
KSB1 140324Z 07001KT 11/02 A301 RMK A01 T01100021  RH  054%=      5-min Rain = 0
KSB1 140325Z 08001KT 11/02 A301 RMK A01 T01100021  RH  054%=      5-min Rain = 0
KSB1 140326Z 08002KT 11/02 A301 RMK A01 T01100020  RH  054%=      5-min Rain = 0
KSB1 140327Z 09002KT 11/02 A301 RMK A01 T01100019  RH  054%=      5-min Rain = 0
KSB1 140328Z 08002KT 11/02 A301 RMK A01 T01100019  RH  053%=      5-min Rain = 0
KSB1 140329Z 07001KT 11/02 A301 RMK A01 T01110019  RH  053%=      5-min Rain = 0
KSB1 140330Z 06001KT 11/02 A301 RMK A01 T01100019  RH  053%=      5-min Rain = 0
KSB1 140331Z 05001KT 11/02 A301 RMK A01 T01100019  RH  053%=      5-min Rain = 0
KSB1 140332Z 06001KT 11/02 A301 RMK A01 T01100019  RH  053%=      5-min Rain = 0
KSB1 140333Z 06001KT 11/02 A301 RMK A01 T01100018  RH  053%=      5-min Rain = 0
KSB1 140334Z 06001KT 11/02 A301 RMK A01 T01110017  RH  052%=      5-min Rain = 0
KSB1 140335Z 06000KT 11/02 A3009 RMK A01 T01120017  RH  052%=      5-min Rain = 0
KSB1 140336Z 00000KT 11/02 A3009 RMK A01 T01120016  RH  052%=      5-min Rain = 0
KSB1 140337Z 00000KT 11/02 A3009 RMK A01 T01130017  RH  051%=      5-min Rain = 0
KSB1 140338Z 00000KT 11/02 A3009 RMK A01 T01130016  RH  051%=      5-min Rain = 0
KSB1 140339Z 10001KT 12/02 A3009 RMK A01 T01150017  RH  051%=      5-min Rain = 0
KSB1 140340Z 09001KT 12/02 A3009 RMK A01 T01180018  RH  050%=      5-min Rain = 0
KSB1 140341Z 07001KT 12/02 A3009 RMK A01 T01190017  RH  050%=      5-min Rain = 0
KSB1 140342Z 02000KT 12/02 A3009 RMK A01 T01200017  RH  049%=      5-min Rain = 0
KSB1 140343Z 00000KT 12/02 A3009 RMK A01 T01210017  RH  049%=      5-min Rain = 0
KSB1 140344Z 29001KT 12/02 A3009 RMK A01 T01220018  RH  049%=      5-min Rain = 0
KSB1 140345Z 29000KT 12/02 A3009 RMK A01 T01200020  RH  050%=      5-min Rain = 0
KSB1 140346Z 00000KT 12/02 A3009 RMK A01 T01190017  RH  050%=      5-min Rain = 0
KSB1 140347Z 00000KT 12/02 A3009 RMK A01 T01210015  RH  048%=      5-min Rain = 0
KSB1 140348Z 00000KT 12/02 A3009 RMK A01 T01230015  RH  047%=      5-min Rain = 0
KSB1 140349Z 00000KT 13/01 A3009 RMK A01 T01260014  RH  046%=      5-min Rain = 0
KSB1 140350Z 00000KT 13/01 A3009 RMK A01 T01280014  RH  046%=      5-min Rain = 0
KSB1 140351Z 00000KT 13/01 A3009 RMK A01 T01290014  RH  045%=      5-min Rain = 0
KSB1 140352Z 00000KT 13/01 A3009 RMK A01 T01290013  RH  045%=      5-min Rain = 0
KSB1 140353Z 00000KT 13/01 A3009 RMK A01 T01290013  RH  045%=      5-min Rain = 0
KSB1 140354Z 00000KT 13/01 A3009 RMK A01 T01290012  RH  045%=      5-min Rain = 0
KSB1 140355Z 00000KT 13/01 A3009 RMK A01 T01280012  RH  045%=      5-min Rain = 0
KSB1 140356Z 00000KT 13/01 A3009 RMK A01 T01280014  RH  046%=      5-min Rain = 0
KSB1 140357Z 00000KT 13/01 A3009 RMK A01 T01280014  RH  046%=      5-min Rain = 0
KSB1 140358Z 00000KT 13/01 A3009 RMK A01 T01280013  RH  045%=      5-min Rain = 0
KSB1 140359Z 00000KT 13/01 A3009 RMK A01 T01290013  RH  045%=      5-min Rain = 0
KSB1 140400Z 00000KT 13/01 A3009 RMK A01 T01290013  RH  045%=      5-min Rain = 0
KSB1 140401Z 00000KT 13/01 A3009 RMK A01 T01280013  RH  045%=      5-min Rain = 0
KSB1 140402Z 00000KT 13/01 A3009 RMK A01 T01280013  RH  045%=      5-min Rain = 0
KSB1 140403Z 00000KT 13/01 A3009 RMK A01 T01280013  RH  045%=      5-min Rain = 0
KSB1 140404Z 00000KT 13/01 A3009 RMK A01 T01280012  RH  045%=      5-min Rain = 0
KSB1 140405Z 00000KT 13/01 A3009 RMK A01 T01280013  RH  045%=      5-min Rain = 0
KSB1 140406Z 26000KT 13/01 A3009 RMK A01 T01280013  RH  046%=      5-min Rain = 0
KSB1 140407Z 15000KT 13/01 A3009 RMK A01 T01250014  RH  047%=      5-min Rain = 0
KSB1 140408Z 15000KT 12/01 A3009 RMK A01 T01240013  RH  047%=      5-min Rain = 0
KSB1 140409Z 15000KT 12/01 A3009 RMK A01 T01230013  RH  047%=      5-min Rain = 0
KSB1 140410Z 19001KT 12/01 A3009 RMK A01 T01220012  RH  047%=      5-min Rain = 0
KSB1 140411Z 18001KT 12/01 A3009 RMK A01 T01220012  RH  047%=      5-min Rain = 0
KSB1 140412Z 17002KT 12/01 A3009 RMK A01 T01210012  RH  047%=      5-min Rain = 0
KSB1 140413Z 17001KT 12/01 A3009 RMK A01 T01210012  RH  047%=      5-min Rain = 0
KSB1 140414Z 17001KT 12/01 A3009 RMK A01 T01220012  RH  047%=      5-min Rain = 0
KSB1 140415Z 22001KT 12/01 A3009 RMK A01 T01210012  RH  047%=      5-min Rain = 0
KSB1 140416Z 23002KT 12/01 A3009 RMK A01 T01210012  RH  047%=      5-min Rain = 0
KSB1 140417Z 21001KT 12/01 A3009 RMK A01 T01200013  RH  048%=      5-min Rain = 0
KSB1 140418Z 20001KT 12/01 A3009 RMK A01 T01190012  RH  048%=      5-min Rain = 0
KSB1 140419Z 20001KT 12/01 A3009 RMK A01 T01190011  RH  048%=      5-min Rain = 0
KSB1 140420Z 19001KT 12/01 A3009 RMK A01 T01190011  RH  047%=      5-min Rain = 0
KSB1 140421Z 19001KT 12/01 A3009 RMK A01 T01200011  RH  047%=      5-min Rain = 0
KSB1 140422Z 21001KT 12/02 A3009 RMK A01 T01190016  RH  049%=      5-min Rain = 0
KSB1 140423Z 21001KT 11/02 A3008 RMK A01 T01140020  RH  053%=      5-min Rain = 0
KSB1 140424Z 19001KT 11/02 A3008 RMK A01 T01100015  RH  052%=      5-min Rain = 0
KSB1 140425Z 19001KT 11/01 A3008 RMK A01 T01100013  RH  051%=      5-min Rain = 0
KSB1 140426Z 19001KT 11/01 A3008 RMK A01 T01100012  RH  051%=      5-min Rain = 0
KSB1 140427Z 21001KT 11/01 A3008 RMK A01 T01120013  RH  050%=      5-min Rain = 0
KSB1 140428Z 21001KT 11/01 A3008 RMK A01 T01130013  RH  050%=      5-min Rain = 0
KSB1 140429Z 21001KT 11/01 A3008 RMK A01 T01140012  RH  049%=      5-min Rain = 0
KSB1 140430Z 19001KT 12/01 A3008 RMK A01 T01150012  RH  049%=      5-min Rain = 0
KSB1 140431Z 18001KT 12/01 A3008 RMK A01 T01150012  RH  049%=      5-min Rain = 0
KSB1 140432Z 18002KT 12/01 A3008 RMK A01 T01160012  RH  049%=      5-min Rain = 0
KSB1 140433Z 18002KT 12/01 A3008 RMK A01 T01160013  RH  049%=      5-min Rain = 0
KSB1 140434Z 19002KT 12/01 A3008 RMK A01 T01170013  RH  049%=      5-min Rain = 0
KSB1 140435Z 21002KT 12/01 A3008 RMK A01 T01160012  RH  049%=      5-min Rain = 0
KSB1 140436Z 23002KT 12/01 A3008 RMK A01 T01160012  RH  049%=      5-min Rain = 0
KSB1 140437Z 24002KT 12/01 A3008 RMK A01 T01160012  RH  049%=      5-min Rain = 0
KSB1 140438Z 24002KT 12/01 A3008 RMK A01 T01150012  RH  049%=      5-min Rain = 0
KSB1 140439Z 21001KT 11/01 A3008 RMK A01 T01140012  RH  050%=      5-min Rain = 0
KSB1 140440Z 24002KT 11/01 A3008 RMK A01 T01130012  RH  050%=      5-min Rain = 0
KSB1 140441Z 24002KT 11/01 A3008 RMK A01 T01130013  RH  050%=      5-min Rain = 0
KSB1 140442Z 22002KT 11/01 A3008 RMK A01 T01120013  RH  050%=      5-min Rain = 0
KSB1 140443Z 22002KT 11/01 A3008 RMK A01 T01110013  RH  051%=      5-min Rain = 0
KSB1 140444Z 21002KT 11/01 A3008 RMK A01 T01110012  RH  051%=      5-min Rain = 0
KSB1 140445Z 21001KT 11/01 A3008 RMK A01 T01100013  RH  051%=      5-min Rain = 0
KSB1 140446Z 20002KT 11/01 A3008 RMK A01 T01090013  RH  051%=      5-min Rain = 0
KSB1 140447Z 18002KT 11/01 A3008 RMK A01 T01090013  RH  052%=      5-min Rain = 0
KSB1 140448Z 23002KT 11/01 A3008 RMK A01 T01080013  RH  052%=      5-min Rain = 0
KSB1 140449Z 21002KT 11/01 A3008 RMK A01 T01090013  RH  051%=      5-min Rain = 0
KSB1 140450Z 18002KT 11/01 A3008 RMK A01 T01100013  RH  051%=      5-min Rain = 0
KSB1 140451Z 17002KT 11/01 A3008 RMK A01 T01120013  RH  051%=      5-min Rain = 0
KSB1 140452Z 17002KT 11/01 A3008 RMK A01 T01120013  RH  050%=      5-min Rain = 0
KSB1 140453Z 17002KT 11/01 A3008 RMK A01 T01130012  RH  050%=      5-min Rain = 0
KSB1 140454Z 19002KT 11/01 A3008 RMK A01 T01140013  RH  050%=      5-min Rain = 0
KSB1 140455Z 20001KT 11/01 A3008 RMK A01 T01140012  RH  050%=      5-min Rain = 0
KSB1 140456Z 21001KT 11/01 A3008 RMK A01 T01140013  RH  050%=      5-min Rain = 0
KSB1 140457Z 19001KT 11/01 A3008 RMK A01 T01130013  RH  050%=      5-min Rain = 0
KSB1 140458Z 17000KT 11/01 A3008 RMK A01 T01130012  RH  050%=      5-min Rain = 0
KSB1 140459Z 00000KT 11/01 A3008 RMK A01 T01130012  RH  050%=      5-min Rain = 0
KSB1 140500Z 00000KT 11/01 A3008 RMK A01 T01130012  RH  050%=      5-min Rain = 0
KSB1 140501Z 00000KT 11/01 A3008 RMK A01 T01130012  RH  050%=      5-min Rain = 0
KSB1 140502Z 00000KT 11/01 A3008 RMK A01 T01120012  RH  050%=      5-min Rain = 0
KSB1 140503Z 00000KT 11/01 A3008 RMK A01 T01120011  RH  050%=      5-min Rain = 0
KSB1 140504Z 00000KT 11/01 A3008 RMK A01 T01120011  RH  050%=      5-min Rain = 0
KSB1 140505Z 21000KT 11/01 A3008 RMK A01 T01120011  RH  050%=      5-min Rain = 0
KSB1 140506Z 00000KT 11/01 A3008 RMK A01 T01130010  RH  049%=      5-min Rain = 0
KSB1 140507Z 00000KT 11/01 A3008 RMK A01 T01130010  RH  049%=      5-min Rain = 0
KSB1 140508Z 00000KT 11/01 A3008 RMK A01 T01130010  RH  049%=      5-min Rain = 0
KSB1 140509Z 00000KT 11/01 A3008 RMK A01 T01140010  RH  049%=      5-min Rain = 0
KSB1 140510Z 14000KT 11/01 A3008 RMK A01 T01140010  RH  049%=      5-min Rain = 0
KSB1 140511Z 13001KT 12/01 A3008 RMK A01 T01150011  RH  049%=      5-min Rain = 0
KSB1 140512Z 13000KT 12/01 A3008 RMK A01 T01160011  RH  048%=      5-min Rain = 0
KSB1 140513Z 20000KT 12/01 A3008 RMK A01 T01160011  RH  048%=      5-min Rain = 0
KSB1 140514Z 21002KT 12/01 A3008 RMK A01 T01150012  RH  049%=      5-min Rain = 0
KSB1 140515Z 22002KT 11/01 A3008 RMK A01 T01130012  RH  050%=      5-min Rain = 0
KSB1 140516Z 22002KT 11/01 A3008 RMK A01 T01120012  RH  050%=      5-min Rain = 0
KSB1 140517Z 22002KT 11/01 A3008 RMK A01 T01110011  RH  050%=      5-min Rain = 0
KSB1 140518Z 22002KT 11/01 A3008 RMK A01 T01110012  RH  050%=      5-min Rain = 0
KSB1 140519Z 22002KT 11/01 A3008 RMK A01 T01100012  RH  051%=      5-min Rain = 0
KSB1 140520Z 23003KT 11/01 A3008 RMK A01 T01090012  RH  051%=      5-min Rain = 0
KSB1 140521Z 22003KT 11/01 A3008 RMK A01 T01080011  RH  051%=      5-min Rain = 0
KSB1 140522Z 23003KT 11/01 A3008 RMK A01 T01080011  RH  051%=      5-min Rain = 0
KSB1 140523Z 23003KT 11/01 A3008 RMK A01 T01080012  RH  051%=      5-min Rain = 0
KSB1 140524Z 22003KT 11/01 A3008 RMK A01 T01070012  RH  052%=      5-min Rain = 0
KSB1 140525Z 22003KT 11/01 A3008 RMK A01 T01080011  RH  051%=      5-min Rain = 0
KSB1 140526Z 22003KT 11/01 A3008 RMK A01 T01110011  RH  050%=      5-min Rain = 0
KSB1 140527Z 21003KT 11/01 A3008 RMK A01 T01120010  RH  050%=      5-min Rain = 0
KSB1 140528Z 22002KT 11/01 A3008 RMK A01 T01130010  RH  049%=      5-min Rain = 0
KSB1 140529Z 23002KT 11/01 A3007 RMK A01 T01130010  RH  049%=      5-min Rain = 0
KSB1 140530Z 23002KT 12/01 A3007 RMK A01 T01150010  RH  048%=      5-min Rain = 0
KSB1 140531Z 22002KT 12/01 A3007 RMK A01 T01160009  RH  048%=      5-min Rain = 0
KSB1 140532Z 24002KT 12/01 A3007 RMK A01 T01180009  RH  047%=      5-min Rain = 0
KSB1 140533Z 26002KT 12/01 A3007 RMK A01 T01190009  RH  047%=      5-min Rain = 0
KSB1 140534Z 27002KT 12/01 A3007 RMK A01 T01190009  RH  047%=      5-min Rain = 0
KSB1 140535Z 27002KT 12/01 A3007 RMK A01 T01210010  RH  047%=      5-min Rain = 0
KSB1 140536Z 26002KT 12/01 A3007 RMK A01 T01210009  RH  046%=      5-min Rain = 0
KSB1 140537Z 27002KT 12/01 A3007 RMK A01 T01210010  RH  046%=      5-min Rain = 0
KSB1 140538Z 28002KT 12/01 A3007 RMK A01 T01210010  RH  046%=      5-min Rain = 0
KSB1 140539Z 26002KT 12/01 A3007 RMK A01 T01220010  RH  046%=      5-min Rain = 0
KSB1 140540Z 25002KT 12/01 A3007 RMK A01 T01230009  RH  046%=      5-min Rain = 0
KSB1 140541Z 25002KT 13/01 A3007 RMK A01 T01250008  RH  045%=      5-min Rain = 0
KSB1 140542Z 26002KT 13/01 A3007 RMK A01 T01260009  RH  045%=      5-min Rain = 0
KSB1 140543Z 26002KT 13/01 A3007 RMK A01 T01260009  RH  044%=      5-min Rain = 0
KSB1 140544Z 25002KT 13/01 A3007 RMK A01 T01260009  RH  045%=      5-min Rain = 0
KSB1 140545Z 24001KT 13/01 A3007 RMK A01 T01260009  RH  045%=      5-min Rain = 0
KSB1 140546Z 22001KT 13/01 A3007 RMK A01 T01260009  RH  045%=      5-min Rain = 0
KSB1 140547Z 22001KT 13/01 A3007 RMK A01 T01250009  RH  045%=      5-min Rain = 0
KSB1 140548Z 21001KT 13/01 A3007 RMK A01 T01250008  RH  045%=      5-min Rain = 0
KSB1 140549Z 22001KT 13/01 A3007 RMK A01 T01260008  RH  044%=      5-min Rain = 0
KSB1 140550Z 22002KT 13/01 A3007 RMK A01 T01260009  RH  045%=      5-min Rain = 0
KSB1 140551Z 23002KT 13/01 A3007 RMK A01 T01250008  RH  045%=      5-min Rain = 0
KSB1 140552Z 22002KT 12/01 A3007 RMK A01 T01240008  RH  045%=      5-min Rain = 0
KSB1 140553Z 22001KT 12/01 A3007 RMK A01 T01240008  RH  045%=      5-min Rain = 0
KSB1 140554Z 21002KT 13/01 A3007 RMK A01 T01250008  RH  045%=      5-min Rain = 0
KSB1 140555Z 20002KT 13/01 A3007 RMK A01 T01250008  RH  045%=      5-min Rain = 0
KSB1 140556Z 20002KT 13/01 A3007 RMK A01 T01250008  RH  045%=      5-min Rain = 0
KSB1 140557Z 21001KT 13/01 A3006 RMK A01 T01250008  RH  045%=      5-min Rain = 0
KSB1 140558Z 21001KT 12/01 A3006 RMK A01 T01240009  RH  045%=      5-min Rain = 0
KSB1 140559Z 20002KT 12/01 A3006 RMK A01 T01220009  RH  046%=      5-min Rain = 0

Page generated in 0.0697 seconds.